Time,TemperatureF,DewpointF,PressureIn,WindDirection,WindDirectionDegrees,WindSpeedMPH,WindSpeedGustMPH,Humidity,HourlyPrecipIn,Conditions,Clouds,dailyrainin,SoftwareType,DateUTC
2013-03-19 00:00:00,72.1,63.0,29.97,SSE,163,4.3,4.3,73,0.00,,,0.31,TxWx,2013-03-19 04:00:00,
2013-03-19 00:03:00,72.0,62.0,29.97,SE,141,4.3,5.6,72,0.00,,,0.31,TxWx,2013-03-19 04:03:00,
2013-03-19 00:05:00,72.1,63.0,29.97,South,186,2.5,2.5,73,0.00,,,0.31,TxWx,2013-03-19 04:05:00,
2013-03-19 00:06:00,72.0,63.0,29.97,South,186,2.5,2.5,73,0.00,,,0.31,TxWx,2013-03-19 04:06:00,
2013-03-19 00:07:00,72.1,63.0,29.97,South,186,4.3,4.3,73,0.00,,,0.31,TxWx,2013-03-19 04:07:00,
2013-03-19 00:08:00,71.8,63.0,29.97,SE,141,3.1,3.7,73,0.00,,,0.31,TxWx,2013-03-19 04:08:00,
2013-03-19 00:11:00,72.1,63.0,29.97,SSE,163,5.0,5.0,73,0.00,,,0.31,TxWx,2013-03-19 04:11:00,
2013-03-19 00:13:00,72.1,63.0,29.96,ESE,118,5.0,5.6,73,0.00,,,0.31,TxWx,2013-03-19 04:13:00,
2013-03-19 00:16:00,72.1,63.0,29.97,SE,141,5.0,6.2,74,0.00,,,0.31,TxWx,2013-03-19 04:16:00,
2013-03-19 00:17:00,72.1,63.0,29.97,SE,141,6.2,6.2,74,0.00,,,0.31,TxWx,2013-03-19 04:17:00,
2013-03-19 00:20:00,72.2,63.0,29.96,SSE,163,6.8,6.8,74,0.00,,,0.31,TxWx,2013-03-19 04:20:00,
2013-03-19 00:21:00,72.1,63.0,29.96,SSE,163,8.0,9.9,74,0.00,,,0.31,TxWx,2013-03-19 04:21:00,
2013-03-19 00:22:00,72.1,63.0,29.96,SE,141,6.2,6.2,74,0.00,,,0.31,TxWx,2013-03-19 04:22:00,
2013-03-19 00:27:00,72.4,63.0,29.96,SE,141,8.0,9.9,74,0.00,,,0.31,TxWx,2013-03-19 04:27:00,
2013-03-19 00:29:00,72.2,63.0,29.96,SSE,163,8.0,8.0,74,0.00,,,0.31,TxWx,2013-03-19 04:29:00,
2013-03-19 00:31:00,72.2,63.0,29.96,South,186,8.7,9.9,74,0.00,,,0.31,TxWx,2013-03-19 04:31:00,
2013-03-19 00:33:00,72.5,63.0,29.96,SSE,163,6.8,7.4,74,0.00,,,0.31,TxWx,2013-03-19 04:33:00,
2013-03-19 00:35:00,72.3,63.0,29.95,SSE,163,11.8,11.8,75,0.00,,,0.31,TxWx,2013-03-19 04:35:00,
2013-03-19 00:36:00,72.3,63.0,29.95,SE,141,9.3,9.9,75,0.00,,,0.31,TxWx,2013-03-19 04:36:00,
2013-03-19 00:38:00,72.4,64.0,29.95,SE,141,8.0,10.5,75,0.00,,,0.31,TxWx,2013-03-19 04:38:00,
2013-03-19 00:40:00,72.5,64.0,29.95,SE,141,10.5,10.5,76,0.00,,,0.31,TxWx,2013-03-19 04:40:00,
2013-03-19 00:42:00,72.3,64.0,29.94,SE,141,8.0,8.0,76,0.00,,,0.31,TxWx,2013-03-19 04:42:00,
2013-03-19 00:43:00,72.2,64.0,29.94,ESE,118,6.8,8.0,76,0.00,,,0.31,TxWx,2013-03-19 04:43:00,
2013-03-19 00:44:00,72.2,64.0,29.94,SE,141,9.9,10.5,76,0.00,,,0.31,TxWx,2013-03-19 04:44:00,
2013-03-19 00:45:00,72.2,64.0,29.94,SE,141,9.3,9.3,76,0.00,,,0.31,TxWx,2013-03-19 04:45:00,
2013-03-19 00:49:00,72.6,65.0,29.95,SSE,163,8.7,9.9,77,0.00,,,0.31,TxWx,2013-03-19 04:49:00,
2013-03-19 00:50:00,72.5,65.0,29.94,SSE,163,8.0,8.0,77,0.00,,,0.31,TxWx,2013-03-19 04:50:00,
2013-03-19 00:51:00,72.5,64.0,29.94,SSE,163,8.7,10.5,77,0.00,,,0.31,TxWx,2013-03-19 04:51:00,
2013-03-19 00:55:00,72.4,64.0,29.94,South,186,6.8,6.8,77,0.00,,,0.31,TxWx,2013-03-19 04:55:00,
2013-03-19 00:57:00,72.4,65.0,29.94,SSE,163,12.4,12.4,78,0.00,,,0.31,TxWx,2013-03-19 04:57:00,
2013-03-19 01:00:00,72.3,64.0,29.94,SE,141,11.8,11.8,77,0.00,,,0.31,TxWx,2013-03-19 05:00:00,
2013-03-19 01:03:00,72.5,66.0,29.93,SSE,163,13.0,13.0,78,0.00,,,0.31,TxWx,2013-03-19 05:03:00,
2013-03-19 01:06:00,72.8,66.0,29.92,SSE,163,9.3,9.9,79,0.00,,,0.00,TxWx,2013-03-19 05:06:00,
2013-03-19 01:07:00,72.5,65.0,29.92,SE,141,11.8,11.8,79,0.00,,,0.00,TxWx,2013-03-19 05:07:00,
2013-03-19 01:11:00,72.4,65.0,29.92,SE,141,13.6,13.6,80,0.00,,,0.00,TxWx,2013-03-19 05:11:00,
2013-03-19 01:12:00,72.6,66.0,29.93,ESE,118,9.9,9.9,80,0.00,,,0.00,TxWx,2013-03-19 05:12:00,
2013-03-19 01:14:00,72.5,66.0,29.93,ESE,118,8.0,8.0,80,0.00,,,0.00,TxWx,2013-03-19 05:14:00,
2013-03-19 01:16:00,72.4,66.0,29.93,SE,141,9.3,11.8,81,0.00,,,0.00,TxWx,2013-03-19 05:16:00,
2013-03-19 01:17:00,72.3,66.0,29.93,SSE,163,7.4,9.3,81,0.00,,,0.00,TxWx,2013-03-19 05:17:00,
2013-03-19 01:20:00,72.3,66.0,29.93,SSE,163,5.6,5.6,81,0.00,,,0.00,TxWx,2013-03-19 05:20:00,
2013-03-19 01:21:00,72.2,66.0,29.93,SE,141,9.3,12.4,81,0.00,,,0.00,TxWx,2013-03-19 05:21:00,
2013-03-19 01:22:00,72.2,66.0,29.93,SSE,163,13.0,13.0,81,0.00,,,0.00,TxWx,2013-03-19 05:22:00,
2013-03-19 01:23:00,72.2,66.0,29.93,SSE,163,6.2,8.7,81,0.00,,,0.00,TxWx,2013-03-19 05:23:00,
2013-03-19 01:26:00,72.1,66.0,29.93,SSW,208,7.4,7.4,81,0.00,,,0.00,TxWx,2013-03-19 05:26:00,
2013-03-19 01:27:00,72.0,66.0,29.93,SSE,163,12.4,13.6,81,0.00,,,0.00,TxWx,2013-03-19 05:27:00,
2013-03-19 01:29:00,72.2,66.0,29.93,South,186,7.4,8.0,82,0.00,,,0.00,TxWx,2013-03-19 05:29:00,
2013-03-19 01:33:00,72.1,66.0,29.93,SSE,163,10.5,10.5,82,0.00,,,0.00,TxWx,2013-03-19 05:33:00,
2013-03-19 01:34:00,72.2,66.0,29.93,SSE,163,8.7,8.7,82,0.00,,,0.00,TxWx,2013-03-19 05:34:00,
2013-03-19 01:36:00,72.2,66.0,29.93,SSE,163,10.5,10.5,82,0.00,,,0.00,TxWx,2013-03-19 05:36:00,
2013-03-19 01:40:00,72.1,66.0,29.93,South,186,8.7,8.7,82,0.00,,,0.00,TxWx,2013-03-19 05:40:00,
2013-03-19 01:41:00,72.1,66.0,29.93,WSW,253,7.4,8.0,82,0.00,,,0.00,TxWx,2013-03-19 05:41:00,
2013-03-19 01:44:00,72.1,66.0,29.93,SSE,163,8.7,8.7,83,0.00,,,0.00,TxWx,2013-03-19 05:44:00,
2013-03-19 01:45:00,72.1,66.0,29.92,SSW,208,8.7,8.7,83,0.00,,,0.00,TxWx,2013-03-19 05:45:00,
2013-03-19 01:46:00,72.0,66.0,29.92,SSE,163,2.5,2.5,83,0.00,,,0.00,TxWx,2013-03-19 05:46:00,
2013-03-19 01:48:00,72.0,66.0,29.92,SSE,163,7.4,7.4,83,0.00,,,0.00,TxWx,2013-03-19 05:48:00,
2013-03-19 01:49:00,72.0,66.0,29.92,SSW,208,5.6,6.2,83,0.00,,,0.00,TxWx,2013-03-19 05:49:00,
2013-03-19 01:51:00,71.9,67.0,29.92,SSE,163,5.6,8.0,83,0.00,,,0.00,TxWx,2013-03-19 05:51:00,
2013-03-19 01:53:00,72.0,67.0,29.92,SSE,163,4.3,4.3,83,0.00,,,0.00,TxWx,2013-03-19 05:53:00,
2013-03-19 01:54:00,71.9,67.0,29.92,SSW,208,3.7,6.2,83,0.00,,,0.00,TxWx,2013-03-19 05:54:00,
2013-03-19 01:56:00,71.9,67.0,29.92,South,186,7.4,8.7,84,0.00,,,0.00,TxWx,2013-03-19 05:56:00,
2013-03-19 01:57:00,71.9,67.0,29.92,SSE,163,3.7,4.3,84,0.00,,,0.00,TxWx,2013-03-19 05:57:00,
2013-03-19 01:59:00,71.9,67.0,29.92,SSE,163,5.0,5.0,84,0.00,,,0.00,TxWx,2013-03-19 05:59:00,
2013-03-19 02:00:00,71.8,67.0,29.92,South,186,6.2,6.2,84,0.00,,,0.00,TxWx,2013-03-19 06:00:00,
2013-03-19 02:02:00,71.9,67.0,29.92,SW,231,2.5,2.5,84,0.00,,,0.00,TxWx,2013-03-19 06:02:00,
2013-03-19 02:03:00,71.8,67.0,29.92,SSE,163,9.9,9.9,84,0.00,,,0.00,TxWx,2013-03-19 06:03:00,
2013-03-19 02:06:00,71.8,67.0,29.92,SSW,208,6.8,8.0,84,0.00,,,0.00,TxWx,2013-03-19 06:06:00,
2013-03-19 02:07:00,71.8,67.0,29.92,East,96,8.0,8.0,84,0.00,,,0.00,TxWx,2013-03-19 06:07:00,
2013-03-19 02:08:00,71.8,67.0,29.92,WNW,298,2.5,3.1,84,0.00,,,0.00,TxWx,2013-03-19 06:08:00,
2013-03-19 02:09:00,71.8,67.0,29.92,South,186,5.6,5.6,84,0.00,,,0.00,TxWx,2013-03-19 06:09:00,
2013-03-19 02:11:00,71.8,67.0,29.92,SSE,163,5.6,6.2,85,0.00,,,0.00,TxWx,2013-03-19 06:11:00,
2013-03-19 02:13:00,71.9,67.0,29.92,South,186,5.6,6.2,85,0.00,,,0.00,TxWx,2013-03-19 06:13:00,
2013-03-19 02:15:00,71.9,67.0,29.93,SW,231,4.3,4.3,85,0.00,,,0.00,TxWx,2013-03-19 06:15:00,
2013-03-19 02:18:00,72.0,67.0,29.93,SE,141,1.9,1.9,85,0.00,,,0.00,TxWx,2013-03-19 06:18:00,
2013-03-19 02:20:00,72.0,67.0,29.93,SSW,208,1.9,2.5,85,0.00,,,0.00,TxWx,2013-03-19 06:20:00,
2013-03-19 02:23:00,71.8,67.0,29.93,SSW,208,2.5,3.1,85,0.00,,,0.00,TxWx,2013-03-19 06:23:00,
2013-03-19 02:24:00,71.8,67.0,29.93,WSW,253,2.5,2.5,85,0.00,,,0.00,TxWx,2013-03-19 06:24:00,
2013-03-19 02:26:00,71.7,67.0,29.93,SSW,208,2.5,3.1,85,0.00,,,0.00,TxWx,2013-03-19 06:26:00,
2013-03-19 02:29:00,71.6,67.0,29.93,South,186,6.2,6.2,85,0.00,,,0.00,TxWx,2013-03-19 06:29:00,
2013-03-19 02:30:00,71.6,67.0,29.93,West,276,1.2,1.2,85,0.00,,,0.00,TxWx,2013-03-19 06:30:00,
2013-03-19 02:31:00,71.6,67.0,29.93,SW,231,1.9,1.9,85,0.00,,,0.00,TxWx,2013-03-19 06:31:00,
2013-03-19 02:36:00,71.7,67.0,29.93,SW,231,1.2,1.9,85,0.00,,,0.00,TxWx,2013-03-19 06:36:00,
2013-03-19 02:39:00,71.6,67.0,29.93,WSW,253,1.9,1.9,85,0.00,,,0.00,TxWx,2013-03-19 06:39:00,
2013-03-19 02:42:00,71.5,66.0,29.93,SSW,208,3.1,3.7,85,0.00,,,0.00,TxWx,2013-03-19 06:42:00,
2013-03-19 02:44:00,71.4,66.0,29.92,SSW,208,1.2,1.2,85,0.00,,,0.00,TxWx,2013-03-19 06:44:00,
2013-03-19 02:45:00,71.4,66.0,29.92,SSW,208,2.5,3.1,85,0.00,,,0.00,TxWx,2013-03-19 06:45:00,
2013-03-19 02:47:00,71.3,66.0,29.92,WSW,253,3.1,3.1,85,0.00,,,0.00,TxWx,2013-03-19 06:47:00,
2013-03-19 02:48:00,71.3,66.0,29.92,SSW,208,3.1,3.1,85,0.00,,,0.00,TxWx,2013-03-19 06:48:00,
2013-03-19 02:50:00,71.2,66.0,29.92,SW,231,3.7,3.7,86,0.00,,,0.00,TxWx,2013-03-19 06:50:00,
2013-03-19 02:51:00,71.2,66.0,29.91,South,186,5.0,5.0,86,0.00,,,0.00,TxWx,2013-03-19 06:51:00,
2013-03-19 02:53:00,71.2,66.0,29.92,SSW,208,3.7,3.7,86,0.00,,,0.00,TxWx,2013-03-19 06:53:00,
2013-03-19 02:54:00,71.2,66.0,29.92,South,186,4.3,5.0,86,0.00,,,0.00,TxWx,2013-03-19 06:54:00,
2013-03-19 02:56:00,71.2,66.0,29.92,SW,231,2.5,2.5,86,0.00,,,0.00,TxWx,2013-03-19 06:56:00,
2013-03-19 02:58:00,71.2,66.0,29.92,SSW,208,3.1,3.7,86,0.00,,,0.00,TxWx,2013-03-19 06:58:00,
2013-03-19 03:00:00,71.1,66.0,29.92,WSW,253,2.5,3.1,86,0.00,,,0.00,TxWx,2013-03-19 07:00:00,
2013-03-19 03:01:00,71.2,66.0,29.92,WSW,253,1.2,1.2,86,0.00,,,0.00,TxWx,2013-03-19 07:01:00,
2013-03-19 03:04:00,71.1,66.0,29.91,SSW,208,1.9,1.9,86,0.00,,,0.00,TxWx,2013-03-19 07:04:00,
2013-03-19 03:05:00,71.0,66.0,29.91,WSW,253,3.7,4.3,86,0.00,,,0.00,TxWx,2013-03-19 07:05:00,
2013-03-19 03:07:00,71.0,67.0,29.91,South,186,2.5,2.5,86,0.00,,,0.00,TxWx,2013-03-19 07:07:00,
2013-03-19 03:09:00,71.0,67.0,29.90,South,186,5.0,5.0,86,0.00,,,0.00,TxWx,2013-03-19 07:09:00,
2013-03-19 03:14:00,71.0,67.0,29.88,SE,141,8.7,8.7,87,0.00,,,0.00,TxWx,2013-03-19 07:14:00,
2013-03-19 03:15:00,71.1,67.0,29.88,South,186,12.4,12.4,87,0.00,,,0.00,TxWx,2013-03-19 07:15:00,
2013-03-19 03:16:00,71.1,67.0,29.88,SSW,208,8.0,8.0,87,0.00,,,0.00,TxWx,2013-03-19 07:16:00,
2013-03-19 03:20:00,71.2,67.0,29.88,South,186,8.0,8.0,87,0.00,,,0.00,TxWx,2013-03-19 07:20:00,
2013-03-19 03:21:00,71.3,67.0,29.88,SSE,163,7.4,8.7,88,0.00,,,0.00,TxWx,2013-03-19 07:21:00,
2013-03-19 03:25:00,71.3,67.0,29.87,SSE,163,8.7,8.7,88,0.00,,,0.00,TxWx,2013-03-19 07:25:00,
2013-03-19 03:26:00,71.3,67.0,29.87,SSE,163,8.0,8.0,88,0.00,,,0.00,TxWx,2013-03-19 07:26:00,
2013-03-19 03:27:00,71.4,67.0,29.87,SE,141,5.0,6.2,88,0.00,,,0.00,TxWx,2013-03-19 07:27:00,
2013-03-19 03:28:00,71.5,67.0,29.87,SSW,208,6.8,6.8,88,0.00,,,0.00,TxWx,2013-03-19 07:28:00,
2013-03-19 03:33:00,71.7,68.0,29.85,SW,231,9.9,9.9,88,0.00,,,0.00,TxWx,2013-03-19 07:33:00,
2013-03-19 03:35:00,72.0,68.0,29.84,South,186,7.4,7.4,89,0.00,,,0.00,TxWx,2013-03-19 07:35:00,
2013-03-19 03:38:00,72.0,68.0,29.84,SSW,208,9.9,9.9,89,0.00,,,0.00,TxWx,2013-03-19 07:38:00,
2013-03-19 03:40:00,72.0,68.0,29.86,SSW,208,5.0,5.6,89,0.00,,,0.00,TxWx,2013-03-19 07:40:00,
2013-03-19 03:42:00,71.8,68.0,29.88,SSW,208,7.4,8.0,88,0.00,,,0.00,TxWx,2013-03-19 07:42:00,
2013-03-19 03:43:00,71.8,68.0,29.88,South,186,5.0,8.0,88,0.00,,,0.00,TxWx,2013-03-19 07:43:00,
2013-03-19 03:44:00,71.9,68.0,29.88,West,276,5.6,5.6,88,0.00,,,0.00,TxWx,2013-03-19 07:44:00,
2013-03-19 03:49:00,71.7,68.0,29.90,WSW,253,5.6,5.6,88,0.00,,,0.00,TxWx,2013-03-19 07:49:00,
2013-03-19 03:50:00,71.6,68.0,29.90,WSW,253,5.6,6.2,88,0.00,,,0.00,TxWx,2013-03-19 07:50:00,
2013-03-19 03:55:00,71.7,68.0,29.89,WSW,253,2.5,2.5,88,0.00,,,0.00,TxWx,2013-03-19 07:55:00,
2013-03-19 03:56:00,71.6,68.0,29.89,West,276,1.9,3.1,87,0.00,,,0.00,TxWx,2013-03-19 07:56:00,
2013-03-19 03:59:00,71.7,68.0,29.89,NW,321,2.5,3.1,87,0.00,,,0.00,TxWx,2013-03-19 07:59:00,
2013-03-19 04:01:00,71.8,68.0,29.90,WNW,298,4.3,5.0,87,0.00,,,0.00,TxWx,2013-03-19 08:01:00,
2013-03-19 04:02:00,71.8,68.0,29.90,WNW,298,1.2,1.2,87,0.00,,,0.00,TxWx,2013-03-19 08:02:00,
2013-03-19 04:05:00,71.9,68.0,29.90,West,276,1.2,1.9,87,0.00,,,0.00,TxWx,2013-03-19 08:05:00,
2013-03-19 04:06:00,71.9,68.0,29.90,WSW,253,2.5,2.5,87,0.00,,,0.00,TxWx,2013-03-19 08:06:00,
2013-03-19 04:09:00,72.0,68.0,29.91,WNW,298,3.7,4.3,87,0.00,,,0.00,TxWx,2013-03-19 08:09:00,
2013-03-19 04:11:00,72.0,68.0,29.91,NNW,343,3.1,4.3,87,0.00,,,0.00,TxWx,2013-03-19 08:11:00,
2013-03-19 04:15:00,71.8,68.0,29.91,NNE,28,6.2,6.2,87,0.00,,,0.00,TxWx,2013-03-19 08:15:00,
2013-03-19 04:17:00,71.6,68.0,29.91,NNE,28,3.7,5.6,86,0.00,,,0.00,TxWx,2013-03-19 08:17:00,
2013-03-19 04:22:00,71.6,68.0,29.90,NW,321,1.9,1.9,87,0.00,,,0.00,TxWx,2013-03-19 08:22:00,
2013-03-19 04:23:00,71.6,68.0,29.90,NW,321,5.6,5.6,87,0.00,,,0.00,TxWx,2013-03-19 08:23:00,
2013-03-19 04:28:00,71.7,68.0,29.88,WNW,298,3.1,3.7,87,0.00,,,0.00,TxWx,2013-03-19 08:28:00,
2013-03-19 04:33:00,71.9,68.0,29.90,WNW,298,1.9,1.9,87,0.00,,,0.00,TxWx,2013-03-19 08:33:00,
2013-03-19 04:34:00,71.9,68.0,29.91,WNW,298,3.1,3.1,87,0.00,,,0.00,TxWx,2013-03-19 08:34:00,
2013-03-19 04:39:00,71.9,67.0,29.92,NW,321,5.6,5.6,86,0.00,,,0.00,TxWx,2013-03-19 08:39:00,
2013-03-19 04:41:00,72.0,67.0,29.92,West,276,2.5,3.1,85,0.00,,,0.00,TxWx,2013-03-19 08:41:00,
2013-03-19 04:45:00,72.0,67.0,29.92,West,276,3.1,3.1,85,0.00,,,0.00,TxWx,2013-03-19 08:45:00,
2013-03-19 04:46:00,72.0,67.0,29.92,NW,321,3.7,4.3,84,0.00,,,0.00,TxWx,2013-03-19 08:46:00,
2013-03-19 04:48:00,72.0,67.0,29.92,WNW,298,3.7,4.3,84,0.00,,,0.00,TxWx,2013-03-19 08:48:00,
2013-03-19 04:51:00,72.1,67.0,29.92,West,276,3.7,3.7,84,0.00,,,0.00,TxWx,2013-03-19 08:51:00,
2013-03-19 04:52:00,72.1,67.0,29.92,West,276,3.1,3.7,84,0.00,,,0.00,TxWx,2013-03-19 08:52:00,
2013-03-19 04:56:00,71.8,67.0,29.92,NW,321,6.8,8.0,84,0.00,,,0.00,TxWx,2013-03-19 08:56:00,
2013-03-19 04:57:00,71.8,67.0,29.92,NW,321,8.0,8.0,84,0.00,,,0.00,TxWx,2013-03-19 08:57:00,
2013-03-19 04:58:00,71.8,67.0,29.92,NNW,343,3.7,3.7,84,0.00,,,0.00,TxWx,2013-03-19 08:58:00,
2013-03-19 05:00:00,71.8,67.0,29.92,North,6,4.3,4.3,84,0.00,,,0.00,TxWx,2013-03-19 09:00:00,
2013-03-19 05:01:00,71.8,67.0,29.91,NNW,343,3.1,3.7,84,0.00,,,0.00,TxWx,2013-03-19 09:01:00,
2013-03-19 05:02:00,71.8,67.0,29.91,NE,51,3.7,3.7,84,0.00,,,0.00,TxWx,2013-03-19 09:02:00,
2013-03-19 05:03:00,71.6,67.0,29.90,NE,51,4.3,4.3,83,0.00,,,0.00,TxWx,2013-03-19 09:03:00,
2013-03-19 05:05:00,71.5,67.0,29.90,NE,51,3.1,3.7,83,0.00,,,0.00,TxWx,2013-03-19 09:05:00,
2013-03-19 05:07:00,71.6,67.0,29.91,West,276,1.2,1.2,84,0.00,,,0.00,TxWx,2013-03-19 09:07:00,
2013-03-19 05:10:00,71.6,67.0,29.91,NW,321,2.5,2.5,84,0.00,,,0.00,TxWx,2013-03-19 09:10:00,
2013-03-19 05:11:00,71.6,67.0,29.91,North,6,1.9,1.9,84,0.00,,,0.00,TxWx,2013-03-19 09:11:00,
2013-03-19 05:13:00,71.5,67.0,29.91,NNE,28,3.1,3.7,84,0.00,,,0.00,TxWx,2013-03-19 09:13:00,
2013-03-19 05:16:00,71.5,67.0,29.91,North,6,1.2,1.9,84,0.00,,,0.00,TxWx,2013-03-19 09:16:00,
2013-03-19 05:17:00,71.3,66.0,29.92,NE,51,3.1,3.1,84,0.00,,,0.00,TxWx,2013-03-19 09:17:00,
2013-03-19 05:18:00,71.2,66.0,29.92,NNE,28,3.1,3.1,84,0.00,,,0.00,TxWx,2013-03-19 09:18:00,
2013-03-19 05:19:00,71.2,66.0,29.92,NE,51,1.9,1.9,84,0.00,,,0.00,TxWx,2013-03-19 09:19:00,
2013-03-19 05:22:00,71.2,66.0,29.91,WSW,253,0.6,1.2,84,0.00,,,0.00,TxWx,2013-03-19 09:22:00,
2013-03-19 05:23:00,71.2,66.0,29.91,ENE,73,1.2,1.2,84,0.00,,,0.00,TxWx,2013-03-19 09:23:00,
2013-03-19 05:25:00,71.3,66.0,29.91,NNE,28,1.2,1.2,84,0.00,,,0.00,TxWx,2013-03-19 09:25:00,
2013-03-19 05:28:00,71.5,66.0,29.91,South,186,0.6,0.6,84,0.00,,,0.00,TxWx,2013-03-19 09:28:00,
2013-03-19 05:29:00,71.5,66.0,29.92,SSW,208,0.0,0.6,84,0.00,,,0.00,TxWx,2013-03-19 09:29:00,
2013-03-19 05:32:00,71.3,66.0,29.92,West,276,1.9,1.9,84,0.00,,,0.00,TxWx,2013-03-19 09:32:00,
2013-03-19 05:34:00,71.2,66.0,29.93,WNW,298,2.5,3.1,84,0.00,,,0.00,TxWx,2013-03-19 09:34:00,
2013-03-19 05:35:00,71.2,66.0,29.93,WNW,298,3.1,3.1,84,0.00,,,0.00,TxWx,2013-03-19 09:35:00,
2013-03-19 05:36:00,71.0,66.0,29.93,West,276,4.3,4.3,84,0.00,,,0.00,TxWx,2013-03-19 09:36:00,
2013-03-19 05:38:00,71.1,66.0,29.93,WNW,298,3.1,3.1,84,0.00,,,0.00,TxWx,2013-03-19 09:38:00,
2013-03-19 05:40:00,70.9,66.0,29.92,WNW,298,1.2,1.9,84,0.00,,,0.00,TxWx,2013-03-19 09:40:00,
2013-03-19 05:42:00,71.0,66.0,29.92,WSW,253,1.2,1.2,84,0.00,,,0.00,TxWx,2013-03-19 09:42:00,
2013-03-19 05:43:00,70.9,66.0,29.92,West,276,2.5,2.5,84,0.00,,,0.00,TxWx,2013-03-19 09:43:00,
2013-03-19 05:45:00,70.9,66.0,29.93,West,276,5.0,5.0,85,0.00,,,0.00,TxWx,2013-03-19 09:45:00,
2013-03-19 05:48:00,70.8,66.0,29.93,West,276,3.7,3.7,85,0.00,,,0.00,TxWx,2013-03-19 09:48:00,
2013-03-19 05:50:00,70.6,66.0,29.93,WNW,298,3.7,3.7,85,0.00,,,0.00,TxWx,2013-03-19 09:50:00,
2013-03-19 05:51:00,70.6,66.0,29.93,WNW,298,3.7,3.7,85,0.00,,,0.00,TxWx,2013-03-19 09:51:00,
2013-03-19 05:53:00,70.5,66.0,29.93,WNW,298,3.1,3.1,86,0.00,,,0.00,TxWx,2013-03-19 09:53:00,
2013-03-19 05:55:00,70.4,65.0,29.94,WNW,298,2.5,2.5,85,0.00,,,0.00,TxWx,2013-03-19 09:55:00,
2013-03-19 05:56:00,70.4,65.0,29.94,WNW,298,2.5,2.5,86,0.00,,,0.00,TxWx,2013-03-19 09:56:00,
2013-03-19 05:59:00,70.5,66.0,29.94,WNW,298,4.3,4.3,86,0.00,,,0.00,TxWx,2013-03-19 09:59:00,
2013-03-19 06:01:00,70.5,66.0,29.94,WNW,298,5.6,5.6,86,0.00,,,0.00,TxWx,2013-03-19 10:01:00,
2013-03-19 06:03:00,70.4,66.0,29.94,West,276,6.8,6.8,86,0.00,,,0.00,TxWx,2013-03-19 10:03:00,
2013-03-19 06:04:00,70.5,66.0,29.94,West,276,5.0,5.0,87,0.00,,,0.00,TxWx,2013-03-19 10:04:00,
2013-03-19 06:08:00,70.3,66.0,29.94,West,276,3.7,4.3,87,0.00,,,0.00,TxWx,2013-03-19 10:08:00,
2013-03-19 06:09:00,70.3,66.0,29.94,West,276,4.3,4.3,87,0.00,,,0.00,TxWx,2013-03-19 10:09:00,
2013-03-19 06:10:00,70.2,66.0,29.94,West,276,3.7,3.7,87,0.00,,,0.00,TxWx,2013-03-19 10:10:00,
2013-03-19 06:11:00,70.3,66.0,29.94,West,276,5.6,5.6,87,0.00,,,0.00,TxWx,2013-03-19 10:11:00,
2013-03-19 06:14:00,70.2,66.0,29.94,WNW,298,3.7,3.7,87,0.00,,,0.00,TxWx,2013-03-19 10:14:00,
2013-03-19 06:15:00,70.2,66.0,29.94,West,276,4.3,4.3,87,0.00,,,0.00,TxWx,2013-03-19 10:15:00,
2013-03-19 06:16:00,70.1,66.0,29.94,West,276,5.0,5.0,87,0.00,,,0.00,TxWx,2013-03-19 10:16:00,
2013-03-19 06:20:00,70.0,66.0,29.94,West,276,5.0,5.0,87,0.00,,,0.00,TxWx,2013-03-19 10:20:00,
2013-03-19 06:21:00,69.9,66.0,29.94,West,276,5.0,5.0,87,0.00,,,0.00,TxWx,2013-03-19 10:21:00,
2013-03-19 06:26:00,69.9,66.0,29.94,West,276,3.7,3.7,87,0.00,,,0.00,TxWx,2013-03-19 10:26:00,
2013-03-19 06:28:00,70.0,66.0,29.94,West,276,4.3,5.0,87,0.00,,,0.00,TxWx,2013-03-19 10:28:00,
2013-03-19 06:29:00,69.9,66.0,29.94,West,276,5.0,5.6,87,0.00,,,0.00,TxWx,2013-03-19 10:29:00,
2013-03-19 06:34:00,69.8,66.0,29.94,West,276,5.6,5.6,87,0.00,,,0.00,TxWx,2013-03-19 10:34:00,
2013-03-19 06:39:00,69.7,66.0,29.94,West,276,6.8,6.8,87,0.00,,,0.00,TxWx,2013-03-19 10:39:00,
2013-03-19 06:41:00,69.7,66.0,29.94,West,276,6.2,6.2,87,0.00,,,0.00,TxWx,2013-03-19 10:41:00,
2013-03-19 06:42:00,69.7,66.0,29.94,West,276,7.4,7.4,88,0.00,,,0.00,TxWx,2013-03-19 10:42:00,
2013-03-19 06:44:00,69.7,66.0,29.94,WNW,298,6.2,6.8,88,0.00,,,0.00,TxWx,2013-03-19 10:44:00,
2013-03-19 06:47:00,69.6,66.0,29.95,West,276,6.8,6.8,88,0.00,,,0.00,TxWx,2013-03-19 10:47:00,
2013-03-19 06:49:00,69.6,66.0,29.94,West,276,3.7,4.3,88,0.00,,,0.00,TxWx,2013-03-19 10:49:00,
2013-03-19 06:50:00,69.6,66.0,29.94,WNW,298,4.3,5.0,88,0.00,,,0.00,TxWx,2013-03-19 10:50:00,
2013-03-19 06:53:00,69.6,66.0,29.95,WSW,253,3.1,3.1,88,0.00,,,0.00,TxWx,2013-03-19 10:53:00,
2013-03-19 06:54:00,69.6,66.0,29.94,WSW,253,3.7,3.7,88,0.00,,,0.00,TxWx,2013-03-19 10:54:00,
2013-03-19 06:56:00,69.6,66.0,29.94,West,276,3.7,3.7,88,0.00,,,0.00,TxWx,2013-03-19 10:56:00,
2013-03-19 07:00:00,69.6,66.0,29.94,WSW,253,4.3,4.3,88,0.00,,,0.00,TxWx,2013-03-19 11:00:00,
2013-03-19 07:02:00,69.6,66.0,29.94,West,276,4.3,5.0,88,0.00,,,0.00,TxWx,2013-03-19 11:02:00,
2013-03-19 07:04:00,69.7,66.0,29.94,West,276,5.0,5.0,88,0.00,,,0.00,TxWx,2013-03-19 11:04:00,
2013-03-19 07:06:00,69.6,66.0,29.95,West,276,5.6,5.6,88,0.00,,,0.00,TxWx,2013-03-19 11:06:00,
2013-03-19 07:07:00,69.7,66.0,29.95,West,276,5.6,5.6,88,0.00,,,0.00,TxWx,2013-03-19 11:07:00,
2013-03-19 07:10:00,69.7,66.0,29.95,West,276,5.0,5.0,88,0.00,,,0.00,TxWx,2013-03-19 11:10:00,
2013-03-19 07:12:00,69.8,66.0,29.95,West,276,6.2,6.2,88,0.00,,,0.00,TxWx,2013-03-19 11:12:00,
2013-03-19 07:14:00,69.8,66.0,29.95,West,276,5.6,5.6,88,0.00,,,0.00,TxWx,2013-03-19 11:14:00,
2013-03-19 07:17:00,69.8,66.0,29.95,West,276,4.3,5.0,88,0.00,,,0.00,TxWx,2013-03-19 11:17:00,
2013-03-19 07:20:00,69.8,66.0,29.95,WSW,253,5.0,5.6,89,0.00,,,0.00,TxWx,2013-03-19 11:20:00,
2013-03-19 07:22:00,69.8,66.0,29.95,SW,231,4.3,5.0,89,0.00,,,0.00,TxWx,2013-03-19 11:22:00,
2013-03-19 07:25:00,69.7,66.0,29.95,West,276,7.4,7.4,89,0.00,,,0.00,TxWx,2013-03-19 11:25:00,
2013-03-19 07:27:00,69.8,66.0,29.95,West,276,6.8,6.8,89,0.00,,,0.00,TxWx,2013-03-19 11:27:00,
2013-03-19 07:29:00,69.7,66.0,29.95,WNW,298,7.4,8.0,89,0.00,,,0.00,TxWx,2013-03-19 11:29:00,
2013-03-19 07:31:00,69.8,67.0,29.95,West,276,5.6,7.4,89,0.00,,,0.00,TxWx,2013-03-19 11:31:00,
2013-03-19 07:32:00,69.8,67.0,29.95,WNW,298,5.0,5.6,89,0.00,,,0.00,TxWx,2013-03-19 11:32:00,
2013-03-19 07:33:00,69.8,66.0,29.96,WNW,298,5.6,5.6,89,0.00,,,0.00,TxWx,2013-03-19 11:33:00,
2013-03-19 07:35:00,69.8,67.0,29.96,WNW,298,3.1,3.1,89,0.00,,,0.00,TxWx,2013-03-19 11:35:00,
2013-03-19 07:37:00,69.8,66.0,29.96,NW,321,3.1,3.1,89,0.00,,,0.00,TxWx,2013-03-19 11:37:00,
2013-03-19 07:38:00,69.8,66.0,29.96,WNW,298,2.5,3.1,89,0.00,,,0.00,TxWx,2013-03-19 11:38:00,
2013-03-19 07:39:00,69.7,66.0,29.96,NW,321,3.7,3.7,89,0.00,,,0.00,TxWx,2013-03-19 11:39:00,
2013-03-19 07:40:00,69.7,66.0,29.96,WNW,298,3.1,3.1,89,0.00,,,0.00,TxWx,2013-03-19 11:40:00,
2013-03-19 07:43:00,69.7,67.0,29.96,WNW,298,4.3,4.3,89,0.00,,,0.00,TxWx,2013-03-19 11:43:00,
2013-03-19 07:44:00,69.7,67.0,29.96,WNW,298,2.5,2.5,89,0.00,,,0.00,TxWx,2013-03-19 11:44:00,
2013-03-19 07:48:00,69.6,67.0,29.96,NW,321,3.7,3.7,89,0.00,,,0.00,TxWx,2013-03-19 11:48:00,
2013-03-19 07:49:00,69.6,67.0,29.96,WNW,298,2.5,2.5,89,0.00,,,0.00,TxWx,2013-03-19 11:49:00,
2013-03-19 07:53:00,69.6,67.0,29.97,WNW,298,5.6,5.6,89,0.00,,,0.00,TxWx,2013-03-19 11:53:00,
2013-03-19 07:55:00,69.7,67.0,29.97,NW,321,2.5,2.5,89,0.00,,,0.00,TxWx,2013-03-19 11:55:00,
2013-03-19 07:57:00,69.7,67.0,29.97,NW,321,2.5,2.5,89,0.00,,,0.00,TxWx,2013-03-19 11:57:00,
2013-03-19 08:00:00,69.7,67.0,29.97,WNW,298,2.5,2.5,89,0.00,,,0.00,TxWx,2013-03-19 12:00:00,
2013-03-19 08:01:00,69.7,67.0,29.97,WNW,298,3.1,3.7,89,0.00,,,0.00,TxWx,2013-03-19 12:01:00,
2013-03-19 08:02:00,69.7,67.0,29.97,WNW,298,2.5,3.1,89,0.00,,,0.00,TxWx,2013-03-19 12:02:00,
2013-03-19 08:06:00,69.6,67.0,29.97,WNW,298,3.1,3.1,89,0.00,,,0.00,TxWx,2013-03-19 12:06:00,
2013-03-19 08:07:00,69.6,67.0,29.98,NW,321,3.7,3.7,89,0.00,,,0.00,TxWx,2013-03-19 12:07:00,
2013-03-19 08:08:00,69.5,66.0,29.98,NNW,343,3.1,3.1,89,0.00,,,0.00,TxWx,2013-03-19 12:08:00,
2013-03-19 08:11:00,69.6,67.0,29.98,WNW,298,1.9,1.9,89,0.00,,,0.00,TxWx,2013-03-19 12:11:00,
2013-03-19 08:12:00,69.6,67.0,29.98,West,276,1.9,1.9,89,0.00,,,0.00,TxWx,2013-03-19 12:12:00,
2013-03-19 08:13:00,69.6,67.0,29.97,NW,321,4.3,5.0,89,0.00,,,0.00,TxWx,2013-03-19 12:13:00,
2013-03-19 08:15:00,69.6,67.0,29.98,WNW,298,2.5,3.1,89,0.00,,,0.00,TxWx,2013-03-19 12:15:00,
2013-03-19 08:16:00,69.5,67.0,29.98,West,276,3.7,3.7,89,0.00,,,0.00,TxWx,2013-03-19 12:16:00,
2013-03-19 08:18:00,69.5,65.0,29.97,WSW,253,2.5,3.1,89,0.00,,,0.00,TxWx,2013-03-19 12:18:00,
2013-03-19 08:20:00,69.5,67.0,29.97,West,276,1.9,1.9,89,0.00,,,0.00,TxWx,2013-03-19 12:20:00,
2013-03-19 08:21:00,69.5,67.0,29.97,WNW,298,2.5,3.1,89,0.00,,,0.00,TxWx,2013-03-19 12:21:00,
2013-03-19 08:25:00,69.5,66.0,29.97,West,276,2.5,2.5,89,0.00,,,0.00,TxWx,2013-03-19 12:25:00,
2013-03-19 08:26:00,69.5,65.0,29.98,WSW,253,3.7,3.7,89,0.00,,,0.00,TxWx,2013-03-19 12:26:00,
2013-03-19 08:28:00,69.5,66.0,29.98,West,276,3.7,3.7,89,0.00,,,0.00,TxWx,2013-03-19 12:28:00,
2013-03-19 08:31:00,69.6,67.0,29.99,WSW,253,4.3,5.0,89,0.00,,,0.00,TxWx,2013-03-19 12:31:00,
2013-03-19 08:32:00,69.6,67.0,29.98,West,276,3.7,3.7,89,0.00,,,0.00,TxWx,2013-03-19 12:32:00,
2013-03-19 08:36:00,69.6,66.0,29.98,WNW,298,3.7,4.3,89,0.00,,,0.00,TxWx,2013-03-19 12:36:00,
2013-03-19 08:37:00,69.6,66.0,29.98,WSW,253,3.7,4.3,89,0.00,,,0.00,TxWx,2013-03-19 12:37:00,
2013-03-19 08:41:00,69.6,66.0,29.98,WNW,298,3.1,3.1,89,0.00,,,0.00,TxWx,2013-03-19 12:41:00,
2013-03-19 08:42:00,69.5,66.0,29.98,NW,321,3.7,3.7,89,0.00,,,0.00,TxWx,2013-03-19 12:42:00,
2013-03-19 08:44:00,69.5,66.0,29.99,West,276,3.1,3.1,89,0.00,,,0.00,TxWx,2013-03-19 12:44:00,
2013-03-19 08:46:00,69.5,65.0,29.99,WNW,298,3.7,3.7,89,0.00,,,0.00,TxWx,2013-03-19 12:46:00,
2013-03-19 08:49:00,69.6,67.0,29.99,West,276,5.6,5.6,89,0.00,,,0.00,TxWx,2013-03-19 12:49:00,
2013-03-19 08:51:00,69.7,67.0,29.99,West,276,5.0,5.0,89,0.00,,,0.00,TxWx,2013-03-19 12:51:00,
2013-03-19 08:52:00,69.6,67.0,29.99,West,276,4.3,4.3,89,0.00,,,0.00,TxWx,2013-03-19 12:52:00,
2013-03-19 08:55:00,69.7,67.0,29.99,West,276,5.0,5.6,89,0.00,,,0.00,TxWx,2013-03-19 12:55:00,
2013-03-19 08:57:00,69.8,67.0,29.99,WNW,298,3.1,3.1,89,0.00,,,0.00,TxWx,2013-03-19 12:57:00,
2013-03-19 09:00:00,69.7,67.0,29.98,West,276,3.7,3.7,89,0.00,,,0.00,TxWx,2013-03-19 13:00:00,
2013-03-19 09:04:00,69.8,67.0,29.98,West,276,5.0,5.6,89,0.00,,,0.00,TxWx,2013-03-19 13:04:00,
2013-03-19 09:07:00,69.8,67.0,29.98,West,276,3.1,3.1,89,0.00,,,0.00,TxWx,2013-03-19 13:07:00,
2013-03-19 09:08:00,69.8,66.0,29.99,West,276,5.6,5.6,89,0.00,,,0.00,TxWx,2013-03-19 13:08:00,
2013-03-19 09:09:00,69.8,66.0,29.99,WNW,298,4.3,4.3,89,0.00,,,0.00,TxWx,2013-03-19 13:09:00,
2013-03-19 09:11:00,69.9,66.0,29.99,West,276,4.3,4.3,89,0.00,,,0.00,TxWx,2013-03-19 13:11:00,
2013-03-19 09:12:00,69.9,66.0,29.99,WSW,253,4.3,4.3,89,0.00,,,0.00,TxWx,2013-03-19 13:12:00,
2013-03-19 09:14:00,69.9,66.0,29.99,WNW,298,5.0,5.0,89,0.00,,,0.00,TxWx,2013-03-19 13:14:00,
2013-03-19 09:18:00,70.0,66.0,29.97,WSW,253,1.9,1.9,89,0.00,,,0.00,TxWx,2013-03-19 13:18:00,
2013-03-19 09:19:00,70.0,66.0,29.97,WSW,253,1.2,1.2,89,0.00,,,0.00,TxWx,2013-03-19 13:19:00,
2013-03-19 09:20:00,69.9,66.0,29.97,West,276,1.9,2.5,89,0.00,,,0.00,TxWx,2013-03-19 13:20:00,
2013-03-19 09:25:00,70.1,66.0,29.97,SW,231,0.6,0.6,89,0.00,,,0.00,TxWx,2013-03-19 13:25:00,
2013-03-19 09:26:00,70.1,66.0,29.97,WSW,253,1.2,1.2,89,0.00,,,0.00,TxWx,2013-03-19 13:26:00,
2013-03-19 09:27:00,70.1,66.0,29.97,WNW,298,1.2,1.9,89,0.00,,,0.00,TxWx,2013-03-19 13:27:00,
2013-03-19 09:30:00,70.2,66.0,29.97,WSW,253,1.2,1.2,89,0.00,,,0.00,TxWx,2013-03-19 13:30:00,
2013-03-19 09:31:00,70.2,66.0,29.98,SW,231,1.2,1.2,89,0.00,,,0.00,TxWx,2013-03-19 13:31:00,
2013-03-19 09:32:00,70.1,66.0,29.98,West,276,1.9,1.9,88,0.00,,,0.00,TxWx,2013-03-19 13:32:00,
2013-03-19 09:33:00,70.1,66.0,29.97,West,276,2.5,2.5,88,0.00,,,0.00,TxWx,2013-03-19 13:33:00,
2013-03-19 09:36:00,70.2,66.0,29.98,WNW,298,0.6,1.2,88,0.00,,,0.00,TxWx,2013-03-19 13:36:00,
2013-03-19 09:38:00,70.3,66.0,29.98,WNW,298,1.2,1.2,89,0.00,,,0.00,TxWx,2013-03-19 13:38:00,
2013-03-19 09:40:00,70.3,66.0,29.98,NW,321,1.9,1.9,88,0.00,,,0.00,TxWx,2013-03-19 13:40:00,
2013-03-19 09:42:00,70.3,66.0,29.98,NNW,343,1.9,2.5,88,0.00,,,0.00,TxWx,2013-03-19 13:42:00,
2013-03-19 09:44:00,70.3,66.0,29.98,NNW,343,1.9,2.5,88,0.00,,,0.00,TxWx,2013-03-19 13:44:00,
2013-03-19 09:46:00,70.3,66.0,29.98,NW,321,2.5,2.5,88,0.00,,,0.00,TxWx,2013-03-19 13:46:00,
2013-03-19 09:47:00,70.3,66.0,29.98,WNW,298,1.2,1.9,88,0.00,,,0.00,TxWx,2013-03-19 13:47:00,
2013-03-19 09:50:00,70.1,66.0,29.99,West,276,2.5,2.5,88,0.00,,,0.00,TxWx,2013-03-19 13:50:00,
2013-03-19 09:52:00,70.2,66.0,29.99,WNW,298,2.5,2.5,88,0.00,,,0.00,TxWx,2013-03-19 13:52:00,
2013-03-19 09:53:00,70.1,66.0,29.99,WNW,298,3.1,3.1,88,0.00,,,0.00,TxWx,2013-03-19 13:53:00,
2013-03-19 09:54:00,70.1,66.0,29.99,NNW,343,3.7,3.7,88,0.00,,,0.00,TxWx,2013-03-19 13:54:00,
2013-03-19 09:56:00,70.1,66.0,29.99,WNW,298,1.9,1.9,88,0.00,,,0.00,TxWx,2013-03-19 13:56:00,
2013-03-19 09:57:00,70.3,66.0,29.98,WNW,298,1.9,2.5,88,0.00,,,0.00,TxWx,2013-03-19 13:57:00,
2013-03-19 09:59:00,70.4,66.0,29.98,NNW,343,1.2,1.2,88,0.00,,,0.00,TxWx,2013-03-19 13:59:00,
2013-03-19 10:00:00,70.3,66.0,29.98,North,6,2.5,2.5,88,0.00,,,0.00,TxWx,2013-03-19 14:00:00,
2013-03-19 10:02:00,70.1,66.0,29.98,West,276,2.5,2.5,87,0.00,,,0.00,TxWx,2013-03-19 14:02:00,
2013-03-19 10:05:00,70.3,66.0,29.98,North,6,2.5,2.5,87,0.00,,,0.00,TxWx,2013-03-19 14:05:00,
2013-03-19 10:07:00,70.3,66.0,29.98,WNW,298,2.5,3.1,87,0.00,,,0.00,TxWx,2013-03-19 14:07:00,
2013-03-19 10:11:00,70.1,66.0,29.99,NW,321,3.1,3.1,86,0.00,,,0.00,TxWx,2013-03-19 14:11:00,
2013-03-19 10:12:00,70.1,66.0,29.99,North,6,6.2,6.2,86,0.00,,,0.00,TxWx,2013-03-19 14:12:00,
2013-03-19 10:16:00,70.0,65.0,29.98,North,6,1.9,1.9,85,0.00,,,0.00,TxWx,2013-03-19 14:16:00,
2013-03-19 10:18:00,70.0,65.0,29.98,NNW,343,2.5,2.5,85,0.00,,,0.00,TxWx,2013-03-19 14:18:00,
2013-03-19 10:19:00,70.1,65.0,29.98,WNW,298,3.1,3.1,85,0.00,,,0.00,TxWx,2013-03-19 14:19:00,
2013-03-19 10:23:00,70.3,65.0,29.99,NNW,343,2.5,2.5,85,0.00,,,0.00,TxWx,2013-03-19 14:23:00,
2013-03-19 10:26:00,70.5,66.0,29.98,WNW,298,0.6,1.2,85,0.00,,,0.00,TxWx,2013-03-19 14:26:00,
2013-03-19 10:28:00,70.6,66.0,29.98,North,6,3.1,3.1,85,0.00,,,0.00,TxWx,2013-03-19 14:28:00,
2013-03-19 10:32:00,70.7,66.0,29.98,North,6,3.1,3.1,84,0.00,,,0.00,TxWx,2013-03-19 14:32:00,
2013-03-19 10:33:00,70.6,66.0,29.98,NW,321,2.5,3.1,84,0.00,,,0.00,TxWx,2013-03-19 14:33:00,
2013-03-19 10:35:00,70.6,66.0,29.99,NNE,28,3.1,3.1,84,0.00,,,0.00,TxWx,2013-03-19 14:35:00,
2013-03-19 10:37:00,70.6,66.0,29.99,East,96,3.7,3.7,84,0.00,,,0.00,TxWx,2013-03-19 14:37:00,
2013-03-19 10:38:00,70.6,66.0,29.99,NW,321,1.9,2.5,84,0.00,,,0.00,TxWx,2013-03-19 14:38:00,
2013-03-19 10:40:00,70.5,66.0,29.99,NNW,343,3.7,3.7,83,0.00,,,0.00,TxWx,2013-03-19 14:40:00,
2013-03-19 10:43:00,70.7,66.0,29.99,NW,321,2.5,2.5,83,0.00,,,0.00,TxWx,2013-03-19 14:43:00,
2013-03-19 10:44:00,70.6,65.0,29.99,NNW,343,3.1,3.1,83,0.00,,,0.00,TxWx,2013-03-19 14:44:00,
2013-03-19 10:46:00,70.7,65.0,29.99,WNW,298,3.1,3.1,83,0.00,,,0.00,TxWx,2013-03-19 14:46:00,
2013-03-19 10:48:00,70.6,65.0,30.00,NW,321,4.3,5.0,82,0.00,,,0.00,TxWx,2013-03-19 14:48:00,
2013-03-19 10:51:00,70.6,65.0,30.00,NNW,343,6.2,6.2,82,0.00,,,0.00,TxWx,2013-03-19 14:51:00,
2013-03-19 10:52:00,70.7,65.0,30.00,NW,321,3.1,3.1,82,0.00,,,0.00,TxWx,2013-03-19 14:52:00,
2013-03-19 10:53:00,70.7,65.0,30.00,NW,321,3.7,4.3,82,0.00,,,0.00,TxWx,2013-03-19 14:53:00,
2013-03-19 10:56:00,70.9,65.0,30.00,NW,321,2.5,2.5,82,0.00,,,0.00,TxWx,2013-03-19 14:56:00,
2013-03-19 10:57:00,70.9,65.0,30.00,NW,321,3.1,3.7,82,0.00,,,0.00,TxWx,2013-03-19 14:57:00,
2013-03-19 10:58:00,71.0,65.0,30.00,North,6,2.5,2.5,82,0.00,,,0.00,TxWx,2013-03-19 14:58:00,
2013-03-19 11:01:00,71.1,65.0,30.01,WNW,298,1.2,1.9,82,0.00,,,0.00,TxWx,2013-03-19 15:01:00,
2013-03-19 11:03:00,71.1,65.0,30.01,NW,321,3.7,3.7,82,0.00,,,0.00,TxWx,2013-03-19 15:03:00,
2013-03-19 11:04:00,71.0,65.0,30.01,NW,321,2.5,2.5,82,0.00,,,0.00,TxWx,2013-03-19 15:04:00,
2013-03-19 11:09:00,71.4,65.0,30.01,West,276,1.2,1.9,82,0.00,,,0.00,TxWx,2013-03-19 15:09:00,
2013-03-19 11:11:00,71.4,65.0,30.01,NW,321,1.9,1.9,82,0.00,,,0.00,TxWx,2013-03-19 15:11:00,
2013-03-19 11:14:00,71.5,65.0,30.01,NW,321,1.9,2.5,81,0.00,,,0.00,TxWx,2013-03-19 15:14:00,
2013-03-19 11:15:00,71.5,66.0,30.01,NW,321,1.9,1.9,81,0.00,,,0.00,TxWx,2013-03-19 15:15:00,
2013-03-19 11:16:00,71.8,66.0,30.01,WNW,298,1.9,1.9,81,0.00,,,0.00,TxWx,2013-03-19 15:16:00,
2013-03-19 11:19:00,71.9,66.0,30.01,NNW,343,3.7,3.7,81,0.00,,,0.00,TxWx,2013-03-19 15:19:00,
2013-03-19 11:20:00,71.9,66.0,30.01,NNE,28,1.9,2.5,81,0.00,,,0.00,TxWx,2013-03-19 15:20:00,
2013-03-19 11:21:00,71.9,66.0,30.01,West,276,1.2,1.9,81,0.00,,,0.00,TxWx,2013-03-19 15:21:00,
2013-03-19 11:24:00,71.7,65.0,30.00,NNE,28,3.1,3.1,80,0.00,,,0.00,TxWx,2013-03-19 15:24:00,
2013-03-19 11:26:00,71.8,65.0,30.00,NNW,343,3.7,3.7,80,0.00,,,0.00,TxWx,2013-03-19 15:26:00,
2013-03-19 11:27:00,71.8,65.0,30.00,NW,321,1.9,2.5,80,0.00,,,0.00,TxWx,2013-03-19 15:27:00,
2013-03-19 11:30:00,71.9,65.0,30.01,NNE,28,3.1,3.1,80,0.00,,,0.00,TxWx,2013-03-19 15:30:00,
2013-03-19 11:31:00,72.0,65.0,30.01,NNW,343,3.7,3.7,80,0.00,,,0.00,TxWx,2013-03-19 15:31:00,
2013-03-19 11:32:00,72.0,65.0,30.01,NNW,343,4.3,4.3,80,0.00,,,0.00,TxWx,2013-03-19 15:32:00,
2013-03-19 11:35:00,72.0,65.0,30.01,WNW,298,3.1,3.1,80,0.00,,,0.00,TxWx,2013-03-19 15:35:00,
2013-03-19 11:38:00,72.3,65.0,30.01,NW,321,1.2,1.9,80,0.00,,,0.00,TxWx,2013-03-19 15:38:00,
2013-03-19 11:39:00,72.1,65.0,30.00,NNW,343,2.5,2.5,80,0.00,,,0.00,TxWx,2013-03-19 15:39:00,
2013-03-19 11:40:00,72.2,65.0,30.00,NNW,343,1.9,2.5,80,0.00,,,0.00,TxWx,2013-03-19 15:40:00,
2013-03-19 11:44:00,72.5,65.0,30.01,West,276,3.1,3.1,80,0.00,,,0.00,TxWx,2013-03-19 15:44:00,
2013-03-19 11:45:00,72.3,65.0,30.01,WNW,298,2.5,3.1,79,0.00,,,0.00,TxWx,2013-03-19 15:45:00,
2013-03-19 11:46:00,72.3,65.0,30.01,NW,321,2.5,2.5,79,0.00,,,0.00,TxWx,2013-03-19 15:46:00,
2013-03-19 11:49:00,72.3,65.0,30.01,North,6,3.7,3.7,78,0.00,,,0.00,TxWx,2013-03-19 15:49:00,
2013-03-19 11:51:00,72.3,64.0,30.01,WNW,298,4.3,4.3,77,0.00,,,0.00,TxWx,2013-03-19 15:51:00,
2013-03-19 11:53:00,72.5,66.0,30.01,WNW,298,5.0,5.0,78,0.00,,,0.00,TxWx,2013-03-19 15:53:00,
2013-03-19 11:54:00,72.5,66.0,30.01,NW,321,3.1,3.1,78,0.00,,,0.00,TxWx,2013-03-19 15:54:00,
2013-03-19 11:57:00,72.5,65.0,30.01,NW,321,3.1,3.7,77,0.00,,,0.00,TxWx,2013-03-19 15:57:00,
2013-03-19 12:00:00,72.5,64.0,30.01,WNW,298,3.7,3.7,77,0.00,,,0.00,TxWx,2013-03-19 16:00:00,
2013-03-19 12:01:00,72.5,64.0,30.01,WNW,298,5.0,5.6,77,0.00,,,0.00,TxWx,2013-03-19 16:01:00,
2013-03-19 12:03:00,72.3,64.0,30.01,WNW,298,5.6,5.6,76,0.00,,,0.00,TxWx,2013-03-19 16:03:00,
2013-03-19 12:05:00,72.5,64.0,30.01,WNW,298,5.0,5.0,77,0.00,,,0.00,TxWx,2013-03-19 16:05:00,
2013-03-19 12:06:00,72.5,64.0,30.01,WNW,298,3.7,4.3,77,0.00,,,0.00,TxWx,2013-03-19 16:06:00,
2013-03-19 12:07:00,72.5,65.0,30.02,WNW,298,4.3,5.6,77,0.00,,,0.00,TxWx,2013-03-19 16:07:00,
2013-03-19 12:08:00,72.6,65.0,30.01,WNW,298,4.3,4.3,77,0.00,,,0.00,TxWx,2013-03-19 16:08:00,
2013-03-19 12:10:00,72.8,65.0,30.02,WNW,298,3.7,4.3,77,0.00,,,0.00,TxWx,2013-03-19 16:10:00,
2013-03-19 12:11:00,72.8,65.0,30.02,NW,321,5.0,5.6,77,0.00,,,0.00,TxWx,2013-03-19 16:11:00,
2013-03-19 12:12:00,72.8,65.0,30.02,NW,321,6.8,6.8,77,0.00,,,0.00,TxWx,2013-03-19 16:12:00,
2013-03-19 12:15:00,72.9,65.0,30.02,NW,321,5.6,6.2,77,0.00,,,0.00,TxWx,2013-03-19 16:15:00,
2013-03-19 12:17:00,73.0,65.0,30.02,NNW,343,3.7,4.3,77,0.00,,,0.00,TxWx,2013-03-19 16:17:00,
2013-03-19 12:18:00,73.0,65.0,30.02,NNW,343,3.7,3.7,77,0.00,,,0.00,TxWx,2013-03-19 16:18:00,
2013-03-19 12:20:00,72.9,65.0,30.02,NW,321,3.7,4.3,76,0.00,,,0.00,TxWx,2013-03-19 16:20:00,
2013-03-19 12:23:00,73.1,65.0,30.02,WNW,298,3.7,3.7,76,0.00,,,0.00,TxWx,2013-03-19 16:23:00,
2013-03-19 12:25:00,73.5,66.0,30.02,WNW,298,1.9,2.5,77,0.00,,,0.00,TxWx,2013-03-19 16:25:00,
2013-03-19 12:26:00,73.4,65.0,30.02,WNW,298,3.7,3.7,77,0.00,,,0.00,TxWx,2013-03-19 16:26:00,
2013-03-19 12:28:00,73.4,65.0,30.01,West,276,4.3,4.3,76,0.00,,,0.00,TxWx,2013-03-19 16:28:00,
2013-03-19 12:31:00,73.3,65.0,30.01,WNW,298,6.2,6.2,75,0.00,,,0.00,TxWx,2013-03-19 16:31:00,
2013-03-19 12:32:00,73.5,65.0,30.01,NW,321,6.2,6.2,76,0.00,,,0.00,TxWx,2013-03-19 16:32:00,
2013-03-19 12:37:00,73.8,66.0,30.01,NW,321,3.1,3.7,75,0.00,,,0.00,TxWx,2013-03-19 16:37:00,
2013-03-19 12:41:00,74.1,66.0,30.01,West,276,2.5,2.5,75,0.00,,,0.00,TxWx,2013-03-19 16:41:00,
2013-03-19 12:42:00,74.3,66.0,30.01,North,6,2.5,3.1,75,0.00,,,0.00,TxWx,2013-03-19 16:42:00,
2013-03-19 12:43:00,74.4,66.0,30.01,WNW,298,2.5,3.1,75,0.00,,,0.00,TxWx,2013-03-19 16:43:00,
2013-03-19 12:46:00,74.3,65.0,30.02,West,276,5.0,5.0,75,0.00,,,0.00,TxWx,2013-03-19 16:46:00,
2013-03-19 12:48:00,74.3,65.0,30.01,NW,321,3.7,4.3,74,0.00,,,0.00,TxWx,2013-03-19 16:48:00,
2013-03-19 12:49:00,73.8,64.0,30.02,NW,321,4.3,4.3,71,0.00,,,0.00,TxWx,2013-03-19 16:49:00,
2013-03-19 12:52:00,73.8,64.0,30.02,NW,321,5.6,5.6,71,0.00,,,0.00,TxWx,2013-03-19 16:52:00,
2013-03-19 12:53:00,73.7,64.0,30.02,NNW,343,5.0,5.0,71,0.00,,,0.00,TxWx,2013-03-19 16:53:00,
2013-03-19 12:55:00,73.9,64.0,30.02,NNW,343,3.7,4.3,71,0.00,,,0.00,TxWx,2013-03-19 16:55:00,
2013-03-19 12:56:00,74.1,64.0,30.02,NW,321,3.7,3.7,71,0.00,,,0.00,TxWx,2013-03-19 16:56:00,
2013-03-19 12:58:00,74.3,64.0,30.02,NNW,343,2.5,2.5,72,0.00,,,0.00,TxWx,2013-03-19 16:58:00,
2013-03-19 13:01:00,74.5,64.0,30.02,NW,321,3.1,3.1,71,0.00,,,0.00,TxWx,2013-03-19 17:01:00,
2013-03-19 13:02:00,74.8,65.0,30.02,WNW,298,1.9,1.9,71,0.00,,,0.00,TxWx,2013-03-19 17:02:00,
2013-03-19 13:03:00,75.0,65.0,30.02,WNW,298,1.9,1.9,72,0.00,,,0.00,TxWx,2013-03-19 17:03:00,
2013-03-19 13:06:00,75.0,65.0,30.02,WNW,298,1.9,1.9,71,0.00,,,0.00,TxWx,2013-03-19 17:06:00,
2013-03-19 13:07:00,74.8,65.0,30.02,WNW,298,2.5,3.1,71,0.00,,,0.00,TxWx,2013-03-19 17:07:00,
2013-03-19 13:08:00,74.9,65.0,30.02,West,276,1.9,1.9,71,0.00,,,0.00,TxWx,2013-03-19 17:08:00,
2013-03-19 13:09:00,74.9,65.0,30.01,NW,321,3.1,3.1,70,0.00,,,0.00,TxWx,2013-03-19 17:09:00,
2013-03-19 13:12:00,74.8,64.0,30.01,NW,321,2.5,2.5,69,0.00,,,0.00,TxWx,2013-03-19 17:12:00,
2013-03-19 13:13:00,74.8,64.0,30.01,WNW,298,3.7,3.7,69,0.00,,,0.00,TxWx,2013-03-19 17:13:00,
2013-03-19 13:14:00,74.9,64.0,30.01,WNW,298,1.9,1.9,69,0.00,,,0.00,TxWx,2013-03-19 17:14:00,
2013-03-19 13:16:00,75.1,65.0,30.01,NNW,343,1.9,2.5,70,0.00,,,0.00,TxWx,2013-03-19 17:16:00,
2013-03-19 13:18:00,75.2,65.0,30.01,NW,321,3.7,3.7,70,0.00,,,0.00,TxWx,2013-03-19 17:18:00,
2013-03-19 13:22:00,75.2,65.0,30.00,NW,321,2.5,2.5,71,0.00,,,0.00,TxWx,2013-03-19 17:22:00,
2013-03-19 13:23:00,75.4,65.0,30.00,SW,231,1.9,2.5,71,0.00,,,0.00,TxWx,2013-03-19 17:23:00,
2013-03-19 13:24:00,75.5,66.0,30.00,NNE,28,1.9,1.9,71,0.00,,,0.00,TxWx,2013-03-19 17:24:00,
2013-03-19 13:29:00,75.3,64.0,30.00,South,186,2.5,2.5,70,0.00,,,0.00,TxWx,2013-03-19 17:29:00,
2013-03-19 13:31:00,75.5,66.0,30.00,NE,51,8.7,8.7,72,0.00,,,0.00,TxWx,2013-03-19 17:31:00,
2013-03-19 13:34:00,74.3,65.0,30.00,NE,51,3.7,4.3,74,0.00,,,0.00,TxWx,2013-03-19 17:34:00,
2013-03-19 13:35:00,74.3,65.0,30.00,NNE,28,6.8,6.8,74,0.00,,,0.00,TxWx,2013-03-19 17:35:00,
2013-03-19 13:36:00,73.9,65.0,30.00,ENE,73,4.3,5.0,75,0.00,,,0.00,TxWx,2013-03-19 17:36:00,
2013-03-19 13:37:00,74.1,66.0,30.00,NNE,28,3.7,3.7,76,0.00,,,0.00,TxWx,2013-03-19 17:37:00,
2013-03-19 13:40:00,74.3,66.0,29.99,ENE,73,4.3,4.3,77,0.00,,,0.00,TxWx,2013-03-19 17:40:00,
2013-03-19 13:41:00,74.5,66.0,29.99,NNE,28,5.6,5.6,78,0.00,,,0.00,TxWx,2013-03-19 17:41:00,
2013-03-19 13:45:00,74.0,66.0,29.99,ESE,118,4.3,5.6,77,0.00,,,0.00,TxWx,2013-03-19 17:45:00,
2013-03-19 13:46:00,73.7,66.0,29.99,ENE,73,9.3,9.3,77,0.00,,,0.00,TxWx,2013-03-19 17:46:00,
2013-03-19 13:47:00,73.9,66.0,30.00,ENE,73,3.7,3.7,78,0.00,,,0.00,TxWx,2013-03-19 17:47:00,
2013-03-19 13:50:00,73.5,66.0,29.99,ENE,73,5.0,5.6,78,0.00,,,0.00,TxWx,2013-03-19 17:50:00,
2013-03-19 13:52:00,73.5,67.0,29.99,SE,141,3.1,3.7,78,0.00,,,0.00,TxWx,2013-03-19 17:52:00,
2013-03-19 13:55:00,73.3,66.0,29.98,East,96,5.0,6.2,78,0.00,,,0.00,TxWx,2013-03-19 17:55:00,
2013-03-19 13:57:00,73.5,67.0,29.99,NNE,28,3.1,3.1,79,0.00,,,0.00,TxWx,2013-03-19 17:57:00,
2013-03-19 13:58:00,73.8,67.0,29.98,NE,51,2.5,2.5,79,0.00,,,0.00,TxWx,2013-03-19 17:58:00,
2013-03-19 14:00:00,73.4,66.0,29.98,East,96,5.6,6.2,79,0.00,,,0.00,TxWx,2013-03-19 18:00:00,
2013-03-19 14:02:00,73.3,66.0,29.98,East,96,4.3,5.6,78,0.00,,,0.00,TxWx,2013-03-19 18:02:00,
2013-03-19 14:03:00,73.7,67.0,29.98,East,96,3.7,4.3,79,0.00,,,0.00,TxWx,2013-03-19 18:03:00,
2013-03-19 14:06:00,73.7,67.0,29.98,East,96,1.9,2.5,79,0.00,,,0.00,TxWx,2013-03-19 18:06:00,
2013-03-19 14:07:00,73.5,67.0,29.98,NNE,28,5.6,6.8,78,0.00,,,0.00,TxWx,2013-03-19 18:07:00,
2013-03-19 14:08:00,73.7,67.0,29.98,ENE,73,3.1,3.1,78,0.00,,,0.00,TxWx,2013-03-19 18:08:00,
2013-03-19 14:12:00,73.5,66.0,29.98,ESE,118,3.7,5.0,78,0.00,,,0.00,TxWx,2013-03-19 18:12:00,
2013-03-19 14:13:00,73.6,66.0,29.98,NE,51,3.7,3.7,78,0.00,,,0.00,TxWx,2013-03-19 18:13:00,
2013-03-19 14:15:00,74.0,66.0,29.98,ENE,73,2.5,2.5,78,0.00,,,0.00,TxWx,2013-03-19 18:15:00,
2013-03-19 14:19:00,73.5,66.0,29.98,ENE,73,5.0,5.0,77,0.00,,,0.00,TxWx,2013-03-19 18:19:00,
2013-03-19 14:20:00,73.8,66.0,29.98,East,96,2.5,2.5,77,0.00,,,0.00,TxWx,2013-03-19 18:20:00,
2013-03-19 14:24:00,73.5,66.0,29.98,NE,51,4.3,4.3,76,0.00,,,0.00,TxWx,2013-03-19 18:24:00,
2013-03-19 14:25:00,73.6,66.0,29.98,SE,141,3.1,4.3,76,0.00,,,0.00,TxWx,2013-03-19 18:25:00,
2013-03-19 14:26:00,73.9,66.0,29.98,ENE,73,5.0,5.0,77,0.00,,,0.00,TxWx,2013-03-19 18:26:00,
2013-03-19 14:27:00,73.8,66.0,29.98,NNE,28,3.1,3.7,76,0.00,,,0.00,TxWx,2013-03-19 18:27:00,
2013-03-19 14:31:00,73.8,66.0,29.98,ENE,73,4.3,5.0,76,0.00,,,0.00,TxWx,2013-03-19 18:31:00,
2013-03-19 14:32:00,74.0,66.0,29.98,NE,51,2.5,2.5,76,0.00,,,0.00,TxWx,2013-03-19 18:32:00,
2013-03-19 14:37:00,73.8,66.0,29.98,NNW,343,2.5,3.1,76,0.00,,,0.00,TxWx,2013-03-19 18:37:00,
2013-03-19 14:38:00,74.2,66.0,29.98,WSW,253,1.9,1.9,77,0.00,,,0.00,TxWx,2013-03-19 18:38:00,
2013-03-19 14:39:00,73.9,66.0,29.98,East,96,3.1,3.1,76,0.00,,,0.00,TxWx,2013-03-19 18:39:00,
2013-03-19 14:43:00,73.9,66.0,29.98,NNE,28,3.1,3.1,76,0.00,,,0.00,TxWx,2013-03-19 18:43:00,
2013-03-19 14:44:00,74.1,66.0,29.98,ENE,73,2.5,2.5,76,0.00,,,0.00,TxWx,2013-03-19 18:44:00,
2013-03-19 14:45:00,74.0,66.0,29.98,East,96,3.1,3.7,76,0.00,,,0.00,TxWx,2013-03-19 18:45:00,
2013-03-19 14:46:00,74.3,66.0,29.98,ENE,73,3.1,3.1,76,0.00,,,0.00,TxWx,2013-03-19 18:46:00,
2013-03-19 14:49:00,74.4,66.0,29.98,East,96,1.9,2.5,77,0.00,,,0.00,TxWx,2013-03-19 18:49:00,
2013-03-19 14:50:00,74.2,66.0,29.98,NNW,343,2.5,3.1,76,0.00,,,0.00,TxWx,2013-03-19 18:50:00,
2013-03-19 14:51:00,74.2,66.0,29.98,North,6,3.7,3.7,77,0.00,,,0.00,TxWx,2013-03-19 18:51:00,
2013-03-19 14:55:00,73.8,66.0,29.97,NNE,28,2.5,2.5,76,0.00,,,0.00,TxWx,2013-03-19 18:55:00,
2013-03-19 14:57:00,73.7,66.0,29.97,SE,141,2.5,4.3,76,0.00,,,0.00,TxWx,2013-03-19 18:57:00,
2013-03-19 14:58:00,73.8,66.0,29.97,NNE,28,3.1,3.1,76,0.00,,,0.00,TxWx,2013-03-19 18:58:00,
2013-03-19 15:00:00,74.1,66.0,29.97,ENE,73,1.2,1.9,76,0.00,,,0.00,TxWx,2013-03-19 19:00:00,
2013-03-19 15:06:00,73.7,66.0,29.97,NNE,28,3.7,4.3,76,0.00,,,0.00,TxWx,2013-03-19 19:06:00,
2013-03-19 15:09:00,73.8,66.0,29.97,NNE,28,3.7,4.3,76,0.00,,,0.00,TxWx,2013-03-19 19:09:00,
2013-03-19 15:11:00,74.1,66.0,29.96,NE,51,3.1,3.7,76,0.00,,,0.00,TxWx,2013-03-19 19:11:00,
2013-03-19 15:12:00,73.9,66.0,29.96,NE,51,4.3,4.3,76,0.00,,,0.00,TxWx,2013-03-19 19:12:00,
2013-03-19 15:15:00,73.9,66.0,29.96,NE,51,3.1,3.7,76,0.00,,,0.00,TxWx,2013-03-19 19:15:00,
2013-03-19 15:16:00,73.7,66.0,29.96,NE,51,4.3,5.6,76,0.00,,,0.00,TxWx,2013-03-19 19:16:00,
2013-03-19 15:19:00,73.4,65.0,29.96,NNE,28,5.0,5.6,76,0.00,,,0.00,TxWx,2013-03-19 19:19:00,
2013-03-19 15:20:00,73.5,66.0,29.96,NE,51,3.1,3.1,76,0.00,,,0.00,TxWx,2013-03-19 19:20:00,
2013-03-19 15:21:00,73.6,66.0,29.96,East,96,2.5,3.1,76,0.00,,,0.00,TxWx,2013-03-19 19:21:00,
2013-03-19 15:24:00,73.6,66.0,29.96,ENE,73,3.7,3.7,76,0.00,,,0.00,TxWx,2013-03-19 19:24:00,
2013-03-19 15:25:00,73.7,66.0,29.96,NE,51,1.9,2.5,77,0.00,,,0.00,TxWx,2013-03-19 19:25:00,
2013-03-19 15:29:00,73.5,66.0,29.96,NE,51,3.1,3.1,76,0.00,,,0.00,TxWx,2013-03-19 19:29:00,
2013-03-19 15:30:00,73.4,65.0,29.96,ENE,73,4.3,5.0,76,0.00,,,0.00,TxWx,2013-03-19 19:30:00,
2013-03-19 15:32:00,73.8,66.0,29.96,NW,321,0.6,1.2,77,0.00,,,0.00,TxWx,2013-03-19 19:32:00,
2013-03-19 15:34:00,73.9,66.0,29.97,South,186,1.2,1.9,77,0.00,,,0.00,TxWx,2013-03-19 19:34:00,
2013-03-19 15:35:00,73.8,66.0,29.96,North,6,3.1,3.1,77,0.00,,,0.00,TxWx,2013-03-19 19:35:00,
2013-03-19 15:37:00,74.0,66.0,29.96,NE,51,4.3,4.3,77,0.00,,,0.00,TxWx,2013-03-19 19:37:00,
2013-03-19 15:39:00,73.9,66.0,29.96,ENE,73,3.1,3.7,76,0.00,,,0.00,TxWx,2013-03-19 19:39:00,
2013-03-19 15:41:00,73.9,66.0,29.96,East,96,3.7,4.3,76,0.00,,,0.00,TxWx,2013-03-19 19:41:00,
2013-03-19 15:44:00,73.5,66.0,29.95,NE,51,5.6,5.6,76,0.00,,,0.00,TxWx,2013-03-19 19:44:00,
2013-03-19 15:46:00,73.8,66.0,29.94,ENE,73,5.0,5.0,76,0.00,,,0.00,TxWx,2013-03-19 19:46:00,
2013-03-19 15:47:00,73.8,66.0,29.94,East,96,3.1,4.3,76,0.00,,,0.00,TxWx,2013-03-19 19:47:00,
2013-03-19 15:48:00,73.7,66.0,29.94,ENE,73,3.7,4.3,77,0.00,,,0.00,TxWx,2013-03-19 19:48:00,
2013-03-19 15:50:00,73.8,66.0,29.94,SSE,163,1.2,1.9,77,0.00,,,0.00,TxWx,2013-03-19 19:50:00,
2013-03-19 15:53:00,73.8,66.0,29.94,ESE,118,2.5,3.1,77,0.00,,,0.00,TxWx,2013-03-19 19:53:00,
2013-03-19 15:55:00,73.8,66.0,29.94,ENE,73,3.1,3.1,77,0.00,,,0.00,TxWx,2013-03-19 19:55:00,
2013-03-19 15:56:00,73.8,66.0,29.94,East,96,5.0,5.0,77,0.00,,,0.00,TxWx,2013-03-19 19:56:00,
2013-03-19 15:57:00,73.7,66.0,29.94,ENE,73,3.7,4.3,77,0.00,,,0.00,TxWx,2013-03-19 19:57:00,
2013-03-19 15:59:00,73.3,65.0,29.95,East,96,5.6,6.2,76,0.00,,,0.00,TxWx,2013-03-19 19:59:00,
2013-03-19 16:00:00,73.5,65.0,29.95,NE,51,3.1,4.3,76,0.00,,,0.00,TxWx,2013-03-19 20:00:00,
2013-03-19 16:02:00,73.5,66.0,29.94,ENE,73,3.7,4.3,77,0.00,,,0.00,TxWx,2013-03-19 20:02:00,
2013-03-19 16:03:00,73.5,66.0,29.94,East,96,4.3,4.3,77,0.00,,,0.00,TxWx,2013-03-19 20:03:00,
2013-03-19 16:04:00,73.5,66.0,29.94,ENE,73,2.5,3.7,77,0.00,,,0.00,TxWx,2013-03-19 20:04:00,
2013-03-19 16:06:00,73.2,65.0,29.93,ESE,118,6.8,6.8,76,0.00,,,0.00,TxWx,2013-03-19 20:06:00,
2013-03-19 16:09:00,72.7,65.0,29.93,East,96,6.8,7.4,76,0.00,,,0.00,TxWx,2013-03-19 20:09:00,
2013-03-19 16:11:00,73.2,65.0,29.93,ESE,118,5.0,5.6,77,0.00,,,0.00,TxWx,2013-03-19 20:11:00,
2013-03-19 16:12:00,73.0,65.0,29.93,East,96,6.2,6.8,77,0.00,,,0.00,TxWx,2013-03-19 20:12:00,
2013-03-19 16:14:00,73.1,65.0,29.93,ESE,118,5.6,5.6,77,0.00,,,0.00,TxWx,2013-03-19 20:14:00,
2013-03-19 16:17:00,73.1,66.0,29.93,East,96,6.2,6.2,78,0.00,,,0.00,TxWx,2013-03-19 20:17:00,
2013-03-19 16:19:00,73.1,66.0,29.92,East,96,5.0,6.2,78,0.00,,,0.00,TxWx,2013-03-19 20:19:00,
2013-03-19 16:21:00,73.2,66.0,29.92,ESE,118,5.0,5.6,78,0.00,,,0.00,TxWx,2013-03-19 20:21:00,
2013-03-19 16:22:00,72.9,65.0,29.92,East,96,6.2,6.2,77,0.00,,,0.00,TxWx,2013-03-19 20:22:00,
2013-03-19 16:23:00,72.9,65.0,29.92,ESE,118,5.6,5.6,77,0.00,,,0.00,TxWx,2013-03-19 20:23:00,
2013-03-19 16:24:00,73.0,66.0,29.93,East,96,5.0,5.6,78,0.00,,,0.00,TxWx,2013-03-19 20:24:00,
2013-03-19 16:28:00,73.0,65.0,29.92,ESE,118,5.0,5.0,77,0.00,,,0.00,TxWx,2013-03-19 20:28:00,
2013-03-19 16:30:00,73.2,66.0,29.92,ESE,118,5.0,5.6,78,0.00,,,0.00,TxWx,2013-03-19 20:30:00,
2013-03-19 16:32:00,73.3,66.0,29.92,ESE,118,5.6,5.6,78,0.00,,,0.00,TxWx,2013-03-19 20:32:00,
2013-03-19 16:34:00,73.1,66.0,29.92,ESE,118,5.6,5.6,78,0.00,,,0.00,TxWx,2013-03-19 20:34:00,
2013-03-19 16:36:00,73.1,66.0,29.92,ESE,118,4.3,5.6,78,0.00,,,0.00,TxWx,2013-03-19 20:36:00,
2013-03-19 16:37:00,73.3,66.0,29.91,East,96,3.7,4.3,78,0.00,,,0.00,TxWx,2013-03-19 20:37:00,
2013-03-19 16:40:00,73.3,66.0,29.91,East,96,5.6,6.2,78,0.00,,,0.00,TxWx,2013-03-19 20:40:00,
2013-03-19 16:41:00,73.2,66.0,29.91,SE,141,5.0,5.6,78,0.00,,,0.00,TxWx,2013-03-19 20:41:00,
2013-03-19 16:46:00,73.3,65.0,29.91,ESE,118,3.7,4.3,77,0.00,,,0.00,TxWx,2013-03-19 20:46:00,
2013-03-19 16:47:00,73.4,66.0,29.92,SE,141,4.3,5.0,78,0.00,,,0.00,TxWx,2013-03-19 20:47:00,
2013-03-19 16:49:00,73.5,66.0,29.92,SSE,163,5.0,5.0,78,0.00,,,0.00,TxWx,2013-03-19 20:49:00,
2013-03-19 16:52:00,73.4,65.0,29.92,ESE,118,4.3,4.3,77,0.00,,,0.00,TxWx,2013-03-19 20:52:00,
2013-03-19 16:53:00,73.3,65.0,29.92,ESE,118,3.7,4.3,77,0.00,,,0.00,TxWx,2013-03-19 20:53:00,
2013-03-19 16:54:00,73.3,65.0,29.92,ESE,118,5.0,5.0,77,0.00,,,0.00,TxWx,2013-03-19 20:54:00,
2013-03-19 16:58:00,73.0,65.0,29.92,SE,141,5.0,5.6,77,0.00,,,0.00,TxWx,2013-03-19 20:58:00,
2013-03-19 17:04:00,73.3,66.0,29.92,ESE,118,4.3,4.3,78,0.00,,,0.00,TxWx,2013-03-19 21:04:00,
2013-03-19 17:09:00,73.3,66.0,29.92,SE,141,3.7,3.7,78,0.00,,,0.00,TxWx,2013-03-19 21:09:00,
2013-03-19 17:10:00,73.4,66.0,29.92,ESE,118,3.7,4.3,78,0.00,,,0.00,TxWx,2013-03-19 21:10:00,
2013-03-19 17:15:00,73.1,65.0,29.92,SE,141,3.7,3.7,77,0.00,,,0.00,TxWx,2013-03-19 21:15:00,
2013-03-19 17:16:00,73.1,65.0,29.92,ESE,118,3.1,3.7,77,0.00,,,0.00,TxWx,2013-03-19 21:16:00,
2013-03-19 17:17:00,73.3,65.0,29.92,SE,141,3.7,3.7,77,0.00,,,0.00,TxWx,2013-03-19 21:17:00,
2013-03-19 17:18:00,73.4,66.0,29.92,ESE,118,3.7,3.7,78,0.00,,,0.00,TxWx,2013-03-19 21:18:00,
2013-03-19 17:20:00,73.4,66.0,29.92,ESE,118,3.1,3.7,78,0.00,,,0.00,TxWx,2013-03-19 21:20:00,
2013-03-19 17:22:00,73.4,66.0,29.92,ESE,118,3.7,3.7,78,0.00,,,0.00,TxWx,2013-03-19 21:22:00,
2013-03-19 17:25:00,73.3,66.0,29.91,ESE,118,3.7,3.7,78,0.00,,,0.00,TxWx,2013-03-19 21:25:00,
2013-03-19 17:27:00,73.2,66.0,29.91,ESE,118,3.1,3.1,78,0.00,,,0.00,TxWx,2013-03-19 21:27:00,
2013-03-19 17:28:00,73.1,66.0,29.91,SE,141,3.1,3.1,78,0.00,,,0.00,TxWx,2013-03-19 21:28:00,
2013-03-19 17:31:00,73.4,66.0,29.91,SE,141,5.0,5.0,78,0.00,,,0.00,TxWx,2013-03-19 21:31:00,
2013-03-19 17:33:00,73.2,66.0,29.91,ESE,118,3.7,4.3,78,0.00,,,0.00,TxWx,2013-03-19 21:33:00,
2013-03-19 17:34:00,73.4,66.0,29.91,SE,141,3.7,5.0,78,0.00,,,0.00,TxWx,2013-03-19 21:34:00,
2013-03-19 17:35:00,73.4,66.0,29.91,SE,141,4.3,4.3,79,0.00,,,0.00,TxWx,2013-03-19 21:35:00,
2013-03-19 17:37:00,73.1,66.0,29.91,East,96,3.7,3.7,78,0.00,,,0.00,TxWx,2013-03-19 21:37:00,
2013-03-19 17:39:00,73.3,66.0,29.91,East,96,5.0,5.0,79,0.00,,,0.00,TxWx,2013-03-19 21:39:00,
2013-03-19 17:41:00,73.4,66.0,29.91,ESE,118,4.3,4.3,79,0.00,,,0.00,TxWx,2013-03-19 21:41:00,
2013-03-19 17:42:00,73.3,66.0,29.91,SE,141,3.1,3.1,79,0.00,,,0.00,TxWx,2013-03-19 21:42:00,
2013-03-19 17:45:00,73.4,66.0,29.91,SE,141,3.7,3.7,79,0.00,,,0.00,TxWx,2013-03-19 21:45:00,
2013-03-19 17:46:00,73.5,67.0,29.91,East,96,3.1,3.1,78,0.00,,,0.00,TxWx,2013-03-19 21:46:00,
2013-03-19 17:47:00,73.6,67.0,29.91,East,96,3.1,3.1,78,0.00,,,0.00,TxWx,2013-03-19 21:47:00,
2013-03-19 17:49:00,73.7,67.0,29.91,ESE,118,4.3,4.3,78,0.00,,,0.00,TxWx,2013-03-19 21:49:00,
2013-03-19 17:50:00,73.6,66.0,29.91,SE,141,5.0,5.0,78,0.00,,,0.00,TxWx,2013-03-19 21:50:00,
2013-03-19 17:52:00,73.5,66.0,29.91,East,96,4.3,5.0,78,0.00,,,0.00,TxWx,2013-03-19 21:52:00,
2013-03-19 17:54:00,73.5,66.0,29.91,ESE,118,5.0,5.6,78,0.00,,,0.00,TxWx,2013-03-19 21:54:00,
2013-03-19 17:57:00,73.6,66.0,29.91,SE,141,4.3,4.3,78,0.00,,,0.00,TxWx,2013-03-19 21:57:00,
2013-03-19 17:58:00,73.5,66.0,29.91,SE,141,5.0,5.0,77,0.00,,,0.00,TxWx,2013-03-19 21:58:00,
2013-03-19 17:59:00,73.6,66.0,29.92,ESE,118,3.1,3.7,77,0.00,,,0.00,TxWx,2013-03-19 21:59:00,
2013-03-19 18:03:00,73.6,66.0,29.91,SE,141,3.7,3.7,77,0.00,,,0.00,TxWx,2013-03-19 22:03:00,
2013-03-19 18:04:00,73.9,66.0,29.91,SE,141,4.3,4.3,77,0.00,,,0.00,TxWx,2013-03-19 22:04:00,
2013-03-19 18:06:00,73.9,66.0,29.91,ESE,118,3.7,3.7,77,0.00,,,0.00,TxWx,2013-03-19 22:06:00,
2013-03-19 18:08:00,73.9,66.0,29.91,ESE,118,3.7,4.3,77,0.00,,,0.00,TxWx,2013-03-19 22:08:00,
2013-03-19 18:09:00,73.8,66.0,29.91,ESE,118,3.7,4.3,77,0.00,,,0.00,TxWx,2013-03-19 22:09:00,
2013-03-19 18:11:00,73.9,66.0,29.91,SE,141,3.7,3.7,77,0.00,,,0.00,TxWx,2013-03-19 22:11:00,
2013-03-19 18:12:00,73.8,66.0,29.91,SE,141,3.1,3.7,77,0.00,,,0.00,TxWx,2013-03-19 22:12:00,
2013-03-19 18:13:00,73.8,66.0,29.91,SE,141,3.1,3.1,77,0.00,,,0.00,TxWx,2013-03-19 22:13:00,
2013-03-19 18:15:00,74.0,66.0,29.91,SE,141,3.1,3.1,77,0.00,,,0.00,TxWx,2013-03-19 22:15:00,
2013-03-19 18:18:00,73.8,66.0,29.92,SE,141,1.9,2.5,77,0.00,,,0.00,TxWx,2013-03-19 22:18:00,
2013-03-19 18:21:00,73.7,66.0,29.92,SE,141,2.5,2.5,77,0.00,,,0.00,TxWx,2013-03-19 22:21:00,
2013-03-19 18:22:00,73.8,66.0,29.92,SSE,163,1.9,1.9,77,0.00,,,0.00,TxWx,2013-03-19 22:22:00,
2013-03-19 18:23:00,73.9,66.0,29.92,SE,141,1.9,2.5,77,0.00,,,0.00,TxWx,2013-03-19 22:23:00,
2013-03-19 18:28:00,73.8,66.0,29.92,SE,141,2.5,2.5,77,0.00,,,0.00,TxWx,2013-03-19 22:28:00,
2013-03-19 18:29:00,73.8,66.0,29.92,SE,141,2.5,2.5,77,0.00,,,0.00,TxWx,2013-03-19 22:29:00,
2013-03-19 18:33:00,73.9,66.0,29.92,SE,141,2.5,3.1,77,0.00,,,0.00,TxWx,2013-03-19 22:33:00,
2013-03-19 18:34:00,73.8,66.0,29.92,SE,141,3.1,3.1,77,0.00,,,0.00,TxWx,2013-03-19 22:34:00,
2013-03-19 18:36:00,73.8,66.0,29.92,SE,141,2.5,3.1,77,0.00,,,0.00,TxWx,2013-03-19 22:36:00,
2013-03-19 18:39:00,73.7,66.0,29.91,SE,141,3.7,3.7,77,0.00,,,0.00,TxWx,2013-03-19 22:39:00,
2013-03-19 18:41:00,73.5,66.0,29.92,SE,141,3.1,3.1,77,0.00,,,0.00,TxWx,2013-03-19 22:41:00,
2013-03-19 18:45:00,73.8,66.0,29.92,SSE,163,1.9,2.5,78,0.00,,,0.00,TxWx,2013-03-19 22:45:00,
2013-03-19 18:46:00,73.6,66.0,29.92,SE,141,2.5,3.1,78,0.00,,,0.00,TxWx,2013-03-19 22:46:00,
2013-03-19 18:50:00,73.7,66.0,29.92,SE,141,2.5,3.1,78,0.00,,,0.00,TxWx,2013-03-19 22:50:00,
2013-03-19 18:52:00,73.6,66.0,29.92,SE,141,4.3,4.3,78,0.00,,,0.00,TxWx,2013-03-19 22:52:00,
2013-03-19 18:54:00,73.6,66.0,29.92,SSE,163,2.5,3.1,78,0.00,,,0.00,TxWx,2013-03-19 22:54:00,
2013-03-19 18:55:00,73.8,66.0,29.92,SE,141,2.5,2.5,78,0.00,,,0.00,TxWx,2013-03-19 22:55:00,
2013-03-19 18:57:00,73.7,67.0,29.92,SE,141,3.7,3.7,78,0.00,,,0.00,TxWx,2013-03-19 22:57:00,
2013-03-19 18:59:00,73.7,67.0,29.92,SE,141,1.9,2.5,78,0.00,,,0.00,TxWx,2013-03-19 22:59:00,
2013-03-19 19:00:00,73.7,67.0,29.93,SE,141,1.9,1.9,78,0.00,,,0.00,TxWx,2013-03-19 23:00:00,
2013-03-19 19:03:00,73.4,66.0,29.93,SSE,163,2.5,2.5,78,0.00,,,0.00,TxWx,2013-03-19 23:03:00,
2013-03-19 19:05:00,73.4,66.0,29.93,SE,141,2.5,2.5,78,0.00,,,0.00,TxWx,2013-03-19 23:05:00,
2013-03-19 19:06:00,73.5,66.0,29.93,SSE,163,3.1,3.1,78,0.00,,,0.00,TxWx,2013-03-19 23:06:00,
2013-03-19 19:10:00,73.4,66.0,29.93,SE,141,1.9,2.5,78,0.00,,,0.00,TxWx,2013-03-19 23:10:00,
2013-03-19 19:12:00,73.2,66.0,29.93,SSE,163,3.1,3.1,78,0.00,,,0.00,TxWx,2013-03-19 23:12:00,
2013-03-19 19:15:00,73.2,66.0,29.93,SSE,163,1.9,2.5,79,0.00,,,0.00,TxWx,2013-03-19 23:15:00,
2013-03-19 19:18:00,73.4,66.0,29.93,SE,141,1.2,1.2,79,0.00,,,0.00,TxWx,2013-03-19 23:18:00,
2013-03-19 19:19:00,73.3,66.0,29.93,SSE,163,1.9,1.9,79,0.00,,,0.00,TxWx,2013-03-19 23:19:00,
2013-03-19 19:20:00,73.1,66.0,29.93,SE,141,1.9,1.9,79,0.00,,,0.00,TxWx,2013-03-19 23:20:00,
2013-03-19 19:21:00,73.1,66.0,29.93,SE,141,1.9,1.9,79,0.00,,,0.00,TxWx,2013-03-19 23:21:00,
2013-03-19 19:23:00,73.2,66.0,29.94,SE,141,2.5,2.5,79,0.00,,,0.00,TxWx,2013-03-19 23:23:00,
2013-03-19 19:25:00,73.2,66.0,29.93,SE,141,1.9,2.5,79,0.00,,,0.00,TxWx,2013-03-19 23:25:00,
2013-03-19 19:26:00,73.2,66.0,29.94,SE,141,3.7,3.7,79,0.00,,,0.00,TxWx,2013-03-19 23:26:00,
2013-03-19 19:28:00,73.1,66.0,29.94,SSE,163,2.5,3.1,79,0.00,,,0.00,TxWx,2013-03-19 23:28:00,
2013-03-19 19:31:00,73.1,66.0,29.94,South,186,3.7,3.7,79,0.00,,,0.00,TxWx,2013-03-19 23:31:00,
2013-03-19 19:32:00,73.1,66.0,29.94,South,186,1.9,1.9,79,0.00,,,0.00,TxWx,2013-03-19 23:32:00,
2013-03-19 19:34:00,73.1,66.0,29.94,SW,231,1.2,1.2,79,0.00,,,0.00,TxWx,2013-03-19 23:34:00,
2013-03-19 19:37:00,73.0,66.0,29.94,SSW,208,1.9,1.9,79,0.00,,,0.00,TxWx,2013-03-19 23:37:00,
2013-03-19 19:39:00,72.9,66.0,29.94,South,186,0.6,1.2,79,0.00,,,0.00,TxWx,2013-03-19 23:39:00,
2013-03-19 19:40:00,72.9,66.0,29.94,SSW,208,1.9,1.9,79,0.00,,,0.00,TxWx,2013-03-19 23:40:00,
2013-03-19 19:42:00,72.8,66.0,29.94,SE,141,1.9,2.5,79,0.00,,,0.00,TxWx,2013-03-19 23:42:00,
2013-03-19 19:44:00,72.8,66.0,29.94,SSE,163,2.5,3.1,80,0.00,,,0.00,TxWx,2013-03-19 23:44:00,
2013-03-19 19:45:00,72.7,66.0,29.94,South,186,2.5,3.1,80,0.00,,,0.00,TxWx,2013-03-19 23:45:00,
2013-03-19 19:48:00,72.7,66.0,29.94,SE,141,2.5,3.1,80,0.00,,,0.00,TxWx,2013-03-19 23:48:00,
2013-03-19 19:50:00,72.7,66.0,29.94,SSW,208,2.5,2.5,80,0.00,,,0.00,TxWx,2013-03-19 23:50:00,
2013-03-19 19:51:00,72.7,66.0,29.94,SSW,208,3.7,3.7,80,0.00,,,0.00,TxWx,2013-03-19 23:51:00,
2013-03-19 19:53:00,72.6,66.0,29.94,South,186,2.5,2.5,80,0.00,,,0.00,TxWx,2013-03-19 23:53:00,
2013-03-19 19:55:00,72.6,66.0,29.94,South,186,3.7,3.7,80,0.00,,,0.00,TxWx,2013-03-19 23:55:00,
2013-03-19 19:58:00,72.5,66.0,29.94,SW,231,2.5,3.1,80,0.00,,,0.00,TxWx,2013-03-19 23:58:00,
2013-03-19 19:59:00,72.5,66.0,29.94,South,186,1.2,1.2,80,0.00,,,0.00,TxWx,2013-03-19 23:59:00,
2013-03-19 20:01:00,72.5,66.0,29.94,SW,231,1.2,1.9,80,0.00,,,0.00,TxWx,2013-03-20 00:01:00,
2013-03-19 20:05:00,72.5,65.0,29.95,South,186,2.5,2.5,80,0.00,,,0.00,TxWx,2013-03-20 00:05:00,
2013-03-19 20:06:00,72.5,65.0,29.95,South,186,3.7,3.7,80,0.00,,,0.00,TxWx,2013-03-20 00:06:00,
2013-03-19 20:07:00,72.5,65.0,29.95,SW,231,0.6,0.6,80,0.00,,,0.00,TxWx,2013-03-20 00:07:00,
2013-03-19 20:10:00,72.5,65.0,29.95,SSE,163,1.9,1.9,80,0.00,,,0.00,TxWx,2013-03-20 00:10:00,
2013-03-19 20:11:00,72.4,65.0,29.95,SSE,163,1.9,2.5,80,0.00,,,0.00,TxWx,2013-03-20 00:11:00,
2013-03-19 20:12:00,72.4,66.0,29.95,South,186,1.2,1.9,81,0.00,,,0.00,TxWx,2013-03-20 00:12:00,
2013-03-19 20:15:00,72.4,66.0,29.95,SSW,208,0.6,0.6,81,0.00,,,0.00,TxWx,2013-03-20 00:15:00,
2013-03-19 20:16:00,72.4,66.0,29.95,SW,231,0.6,0.6,81,0.00,,,0.00,TxWx,2013-03-20 00:16:00,
2013-03-19 20:21:00,72.3,66.0,29.95,SSW,208,1.2,1.9,81,0.00,,,0.00,TxWx,2013-03-20 00:21:00,
2013-03-19 20:22:00,72.3,66.0,29.95,SSW,208,0.6,0.6,81,0.00,,,0.00,TxWx,2013-03-20 00:22:00,
2013-03-19 20:23:00,72.3,66.0,29.95,WSW,253,0.6,1.2,81,0.00,,,0.00,TxWx,2013-03-20 00:23:00,
2013-03-19 20:26:00,72.2,66.0,29.95,SW,231,0.6,1.2,81,0.00,,,0.00,TxWx,2013-03-20 00:26:00,
2013-03-19 20:27:00,72.2,66.0,29.95,South,186,2.5,2.5,81,0.00,,,0.00,TxWx,2013-03-20 00:27:00,
2013-03-19 20:28:00,72.2,66.0,29.95,SSW,208,1.2,1.9,81,0.00,,,0.00,TxWx,2013-03-20 00:28:00,
2013-03-19 20:31:00,72.2,66.0,29.95,SSE,163,1.9,3.1,81,0.00,,,0.00,TxWx,2013-03-20 00:31:00,
2013-03-19 20:33:00,72.2,66.0,29.95,SSW,208,0.6,1.2,81,0.00,,,0.00,TxWx,2013-03-20 00:33:00,
2013-03-19 20:34:00,72.2,66.0,29.95,SSW,208,1.2,1.2,81,0.00,,,0.00,TxWx,2013-03-20 00:34:00,
2013-03-19 20:35:00,72.2,66.0,29.95,SSE,163,1.9,1.9,81,0.00,,,0.00,TxWx,2013-03-20 00:35:00,
2013-03-19 20:37:00,72.1,66.0,29.95,SSW,208,0.0,0.6,81,0.00,,,0.00,TxWx,2013-03-20 00:37:00,
2013-03-19 20:39:00,72.1,66.0,29.95,SW,231,0.6,0.6,81,0.00,,,0.00,TxWx,2013-03-20 00:39:00,
2013-03-19 20:42:00,72.1,66.0,29.95,SW,231,0.6,1.2,81,0.00,,,0.00,TxWx,2013-03-20 00:42:00,
2013-03-19 20:45:00,72.0,66.0,29.95,SW,231,0.6,1.2,81,0.00,,,0.00,TxWx,2013-03-20 00:45:00,
2013-03-19 20:46:00,71.9,66.0,29.95,SW,231,0.6,0.6,81,0.00,,,0.00,TxWx,2013-03-20 00:46:00,
2013-03-19 20:48:00,71.9,66.0,29.96,WSW,253,0.0,0.6,81,0.00,,,0.00,TxWx,2013-03-20 00:48:00,
2013-03-19 20:50:00,71.8,66.0,29.95,WSW,253,0.0,0.0,81,0.00,,,0.00,TxWx,2013-03-20 00:50:00,
2013-03-19 20:51:00,71.8,66.0,29.96,WSW,253,0.0,0.0,81,0.00,,,0.00,TxWx,2013-03-20 00:51:00,
2013-03-19 20:53:00,71.8,66.0,29.96,South,186,1.2,1.9,81,0.00,,,0.00,TxWx,2013-03-20 00:53:00,
2013-03-19 20:56:00,71.9,66.0,29.95,SW,231,1.2,1.2,82,0.00,,,0.00,TxWx,2013-03-20 00:56:00,
2013-03-19 20:58:00,71.9,66.0,29.95,SW,231,1.2,1.2,82,0.00,,,0.00,TxWx,2013-03-20 00:58:00,
2013-03-19 21:01:00,71.9,66.0,29.95,South,186,1.2,1.9,82,0.00,,,0.00,TxWx,2013-03-20 01:01:00,
2013-03-19 21:02:00,71.9,66.0,29.95,SW,231,1.2,1.2,82,0.00,,,0.00,TxWx,2013-03-20 01:02:00,
2013-03-19 21:04:00,71.8,66.0,29.95,SW,231,0.6,1.2,82,0.00,,,0.00,TxWx,2013-03-20 01:04:00,
2013-03-19 21:06:00,71.8,66.0,29.96,South,186,0.6,0.6,82,0.00,,,0.00,TxWx,2013-03-20 01:06:00,
2013-03-19 21:07:00,71.8,66.0,29.96,SW,231,0.6,0.6,82,0.00,,,0.00,TxWx,2013-03-20 01:07:00,
2013-03-19 21:08:00,71.8,66.0,29.95,SW,231,0.0,0.6,82,0.00,,,0.00,TxWx,2013-03-20 01:08:00,
2013-03-19 21:12:00,71.7,66.0,29.96,SW,231,1.2,1.2,82,0.00,,,0.00,TxWx,2013-03-20 01:12:00,
2013-03-19 21:13:00,71.6,66.0,29.96,SW,231,0.6,0.6,82,0.00,,,0.00,TxWx,2013-03-20 01:13:00,
2013-03-19 21:17:00,71.6,66.0,29.96,WSW,253,0.6,0.6,82,0.00,,,0.00,TxWx,2013-03-20 01:17:00,
2013-03-19 21:18:00,71.6,66.0,29.96,SW,231,0.6,0.6,82,0.00,,,0.00,TxWx,2013-03-20 01:18:00,
2013-03-19 21:22:00,71.5,66.0,29.96,SSW,208,1.2,1.2,83,0.00,,,0.00,TxWx,2013-03-20 01:22:00,
2013-03-19 21:24:00,71.5,65.0,29.96,SW,231,1.2,1.2,83,0.00,,,0.00,TxWx,2013-03-20 01:24:00,
2013-03-19 21:27:00,71.4,65.0,29.96,South,186,1.2,1.2,83,0.00,,,0.00,TxWx,2013-03-20 01:27:00,
2013-03-19 21:30:00,71.4,65.0,29.96,WSW,253,1.2,1.2,83,0.00,,,0.00,TxWx,2013-03-20 01:30:00,
2013-03-19 21:32:00,71.3,65.0,29.96,SW,231,0.6,0.6,83,0.00,,,0.00,TxWx,2013-03-20 01:32:00,
2013-03-19 21:35:00,71.3,66.0,29.96,WSW,253,0.6,0.6,83,0.00,,,0.00,TxWx,2013-03-20 01:35:00,
2013-03-19 21:36:00,71.3,66.0,29.96,WSW,253,0.0,0.0,83,0.00,,,0.00,TxWx,2013-03-20 01:36:00,
2013-03-19 21:39:00,71.2,66.0,29.96,WSW,253,0.6,0.6,83,0.00,,,0.00,TxWx,2013-03-20 01:39:00,
2013-03-19 21:41:00,71.2,66.0,29.96,SW,231,0.6,0.6,83,0.00,,,0.00,TxWx,2013-03-20 01:41:00,
2013-03-19 21:42:00,71.2,66.0,29.96,SW,231,1.2,1.2,83,0.00,,,0.00,TxWx,2013-03-20 01:42:00,
2013-03-19 21:45:00,71.1,66.0,29.96,SW,231,0.6,0.6,83,0.00,,,0.00,TxWx,2013-03-20 01:45:00,
2013-03-19 21:46:00,71.1,66.0,29.96,SW,231,0.6,0.6,83,0.00,,,0.00,TxWx,2013-03-20 01:46:00,
2013-03-19 21:50:00,71.0,66.0,29.96,SSW,208,0.6,0.6,84,0.00,,,0.00,TxWx,2013-03-20 01:50:00,
2013-03-19 21:51:00,71.0,66.0,29.96,SSW,208,0.6,0.6,84,0.00,,,0.00,TxWx,2013-03-20 01:51:00,
2013-03-19 21:52:00,71.0,66.0,29.96,SW,231,0.6,0.6,84,0.00,,,0.00,TxWx,2013-03-20 01:52:00,
2013-03-19 21:56:00,70.9,66.0,29.96,WSW,253,0.6,0.6,84,0.00,,,0.00,TxWx,2013-03-20 01:56:00,
2013-03-19 21:57:00,70.9,66.0,29.96,WSW,253,0.0,0.0,84,0.00,,,0.00,TxWx,2013-03-20 01:57:00,
2013-03-19 22:01:00,70.9,66.0,29.97,WSW,253,0.6,0.6,84,0.00,,,0.00,TxWx,2013-03-20 02:01:00,
2013-03-19 22:02:00,70.9,66.0,29.96,WSW,253,0.6,0.6,84,0.00,,,0.00,TxWx,2013-03-20 02:02:00,
2013-03-19 22:04:00,70.8,66.0,29.96,WSW,253,0.0,0.0,84,0.00,,,0.00,TxWx,2013-03-20 02:04:00,
2013-03-19 22:05:00,70.8,66.0,29.96,WSW,253,0.0,0.0,84,0.00,,,0.00,TxWx,2013-03-20 02:05:00,
2013-03-19 22:06:00,70.7,66.0,29.96,WSW,253,0.0,0.0,84,0.00,,,0.00,TxWx,2013-03-20 02:06:00,
2013-03-19 22:07:00,70.7,66.0,29.96,WSW,253,0.6,0.6,84,0.00,,,0.00,TxWx,2013-03-20 02:07:00,
2013-03-19 22:09:00,70.7,66.0,29.96,WSW,253,0.0,0.6,84,0.00,,,0.00,TxWx,2013-03-20 02:09:00,
2013-03-19 22:11:00,70.7,66.0,29.97,SSW,208,1.2,1.2,84,0.00,,,0.00,TxWx,2013-03-20 02:11:00,
2013-03-19 22:12:00,70.7,66.0,29.97,SW,231,1.2,1.2,84,0.00,,,0.00,TxWx,2013-03-20 02:12:00,
2013-03-19 22:15:00,70.7,66.0,29.97,SSW,208,1.2,1.2,85,0.00,,,0.00,TxWx,2013-03-20 02:15:00,
2013-03-19 22:16:00,70.8,66.0,29.97,SW,231,0.6,0.6,85,0.00,,,0.00,TxWx,2013-03-20 02:16:00,
2013-03-19 22:17:00,70.7,66.0,29.97,SW,231,1.2,1.2,85,0.00,,,0.00,TxWx,2013-03-20 02:17:00,
2013-03-19 22:21:00,70.8,66.0,29.96,SSW,208,1.2,1.2,85,0.00,,,0.00,TxWx,2013-03-20 02:21:00,
2013-03-19 22:22:00,70.8,66.0,29.96,SSW,208,1.2,1.2,85,0.00,,,0.00,TxWx,2013-03-20 02:22:00,
2013-03-19 22:23:00,70.8,66.0,29.96,SSW,208,0.6,0.6,85,0.00,,,0.00,TxWx,2013-03-20 02:23:00,
2013-03-19 22:24:00,70.8,66.0,29.96,SSW,208,1.2,1.2,85,0.00,,,0.00,TxWx,2013-03-20 02:24:00,
2013-03-19 22:28:00,70.7,66.0,29.97,WSW,253,0.0,0.6,85,0.00,,,0.00,TxWx,2013-03-20 02:28:00,
2013-03-19 22:30:00,70.6,66.0,29.97,SSW,208,1.2,1.2,85,0.00,,,0.00,TxWx,2013-03-20 02:30:00,
2013-03-19 22:31:00,70.6,66.0,29.97,South,186,1.2,1.9,85,0.00,,,0.00,TxWx,2013-03-20 02:31:00,
2013-03-19 22:32:00,70.6,66.0,29.97,WSW,253,0.6,0.6,85,0.00,,,0.00,TxWx,2013-03-20 02:32:00,
2013-03-19 22:36:00,70.6,66.0,29.97,SSW,208,0.6,1.2,85,0.00,,,0.00,TxWx,2013-03-20 02:36:00,
2013-03-19 22:37:00,70.6,66.0,29.97,SW,231,1.2,1.2,85,0.00,,,0.00,TxWx,2013-03-20 02:37:00,
2013-03-19 22:38:00,70.6,66.0,29.97,SSW,208,1.9,2.5,85,0.00,,,0.00,TxWx,2013-03-20 02:38:00,
2013-03-19 22:42:00,70.6,66.0,29.97,WSW,253,1.2,1.2,85,0.00,,,0.00,TxWx,2013-03-20 02:42:00,
2013-03-19 22:43:00,70.6,66.0,29.96,SW,231,1.9,1.9,85,0.00,,,0.00,TxWx,2013-03-20 02:43:00,
2013-03-19 22:46:00,70.6,66.0,29.97,SSW,208,2.5,3.1,86,0.00,,,0.00,TxWx,2013-03-20 02:46:00,
2013-03-19 22:47:00,70.6,66.0,29.97,SW,231,0.6,1.2,86,0.00,,,0.00,TxWx,2013-03-20 02:47:00,
2013-03-19 22:48:00,70.6,66.0,29.97,SW,231,0.6,1.2,86,0.00,,,0.00,TxWx,2013-03-20 02:48:00,
2013-03-19 22:52:00,70.6,66.0,29.97,SW,231,1.2,1.2,86,0.00,,,0.00,TxWx,2013-03-20 02:52:00,
2013-03-19 22:54:00,70.6,66.0,29.97,SSW,208,1.9,1.9,86,0.00,,,0.00,TxWx,2013-03-20 02:54:00,
2013-03-19 22:56:00,70.5,66.0,29.96,SSW,208,1.2,1.2,86,0.00,,,0.00,TxWx,2013-03-20 02:56:00,
2013-03-19 22:57:00,70.5,66.0,29.96,SW,231,1.9,1.9,86,0.00,,,0.00,TxWx,2013-03-20 02:57:00,
2013-03-19 22:58:00,70.5,66.0,29.96,SSW,208,1.2,1.2,86,0.00,,,0.00,TxWx,2013-03-20 02:58:00,
2013-03-19 22:59:00,70.5,66.0,29.96,SW,231,1.2,1.2,86,0.00,,,0.00,TxWx,2013-03-20 02:59:00,
2013-03-19 23:02:00,70.5,67.0,29.97,NW,321,0.6,0.6,86,0.00,,,0.00,TxWx,2013-03-20 03:02:00,
2013-03-19 23:03:00,70.5,67.0,29.96,SW,231,1.2,1.2,86,0.00,,,0.00,TxWx,2013-03-20 03:03:00,
2013-03-19 23:06:00,70.5,66.0,29.97,SW,231,0.0,0.6,86,0.00,,,0.00,TxWx,2013-03-20 03:06:00,
2013-03-19 23:07:00,70.5,66.0,29.96,SW,231,1.9,1.9,86,0.00,,,0.00,TxWx,2013-03-20 03:07:00,
2013-03-19 23:08:00,70.5,66.0,29.97,WSW,253,1.2,1.2,86,0.00,,,0.00,TxWx,2013-03-20 03:08:00,
2013-03-19 23:11:00,70.5,66.0,29.97,WSW,253,1.2,1.2,86,0.00,,,0.00,TxWx,2013-03-20 03:11:00,
2013-03-19 23:13:00,70.5,66.0,29.97,SSW,208,1.2,1.2,86,0.00,,,0.00,TxWx,2013-03-20 03:13:00,
2013-03-19 23:16:00,70.5,67.0,29.97,SSW,208,1.9,1.9,87,0.00,,,0.00,TxWx,2013-03-20 03:16:00,
2013-03-19 23:18:00,70.5,67.0,29.96,SW,231,1.2,1.2,87,0.00,,,0.00,TxWx,2013-03-20 03:18:00,
2013-03-19 23:21:00,70.5,66.0,29.96,SW,231,0.6,0.6,87,0.00,,,0.00,TxWx,2013-03-20 03:21:00,
2013-03-19 23:22:00,70.5,66.0,29.96,SSW,208,2.5,2.5,87,0.00,,,0.00,TxWx,2013-03-20 03:22:00,
2013-03-19 23:24:00,70.5,66.0,29.96,SW,231,0.0,0.6,87,0.00,,,0.00,TxWx,2013-03-20 03:24:00,
2013-03-19 23:28:00,70.4,66.0,29.96,SSW,208,1.2,1.2,87,0.00,,,0.00,TxWx,2013-03-20 03:28:00,
2013-03-19 23:30:00,70.4,66.0,29.96,SSW,208,1.9,1.9,87,0.00,,,0.00,TxWx,2013-03-20 03:30:00,
2013-03-19 23:32:00,70.4,66.0,29.96,SSE,163,1.2,1.2,87,0.00,,,0.00,TxWx,2013-03-20 03:32:00,
2013-03-19 23:33:00,70.4,66.0,29.96,SW,231,1.2,1.2,87,0.00,,,0.00,TxWx,2013-03-20 03:33:00,
2013-03-19 23:37:00,70.4,66.0,29.96,WSW,253,1.2,1.2,87,0.00,,,0.00,TxWx,2013-03-20 03:37:00,
2013-03-19 23:39:00,70.5,66.0,29.96,SW,231,1.2,1.2,87,0.00,,,0.00,TxWx,2013-03-20 03:39:00,
2013-03-19 23:41:00,70.4,66.0,29.96,WSW,253,0.6,0.6,87,0.00,,,0.00,TxWx,2013-03-20 03:41:00,
2013-03-19 23:43:00,70.4,66.0,29.96,WSW,253,0.6,0.6,87,0.00,,,0.00,TxWx,2013-03-20 03:43:00,
2013-03-19 23:46:00,70.3,66.0,29.96,SW,231,0.6,0.6,87,0.00,,,0.00,TxWx,2013-03-20 03:46:00,
2013-03-19 23:47:00,70.4,66.0,29.96,SW,231,0.6,1.2,87,0.00,,,0.00,TxWx,2013-03-20 03:47:00,
2013-03-19 23:48:00,70.3,66.0,29.96,WSW,253,1.2,1.2,87,0.00,,,0.00,TxWx,2013-03-20 03:48:00,
2013-03-19 23:51:00,70.5,66.0,29.96,WSW,253,1.2,1.9,88,0.00,,,0.00,TxWx,2013-03-20 03:51:00,
2013-03-19 23:54:00,70.5,67.0,29.96,WSW,253,0.6,0.6,88,0.00,,,0.00,TxWx,2013-03-20 03:54:00,
2013-03-19 23:55:00,70.5,66.0,29.96,SW,231,0.6,1.2,88,0.00,,,0.00,TxWx,2013-03-20 03:55:00,
2013-03-19 23:57:00,70.4,66.0,29.96,WSW,253,0.6,1.2,88,0.00,,,0.00,TxWx,2013-03-20 03:57:00,
2013-03-19 23:59:00,70.4,66.0,29.96,WSW,253,1.2,1.9,88,0.00,,,0.00,TxWx,2013-03-20 03:59:00,